KLM691 EHAM-CYYZ
Flight info
| Callsign | KLM691 |
|---|---|
| Flight time | 7h 53m |
| Altitude | 34000 |
| Route | BERGI L602 NALAX L46 GETNO/N0490F360 DCT NIBOG DCT PIKIL/M084F370 DCT 57N020W 58N030W 57N040W 55N050W DCT LOMSI/N0476F380 DCT BOBBS DCT YBC/N0484F400 DCT POLTY IMEBA9 |
| Aircraft | MD11/H-SDE1E2E3FGHIJ2J3J4J5M1RWXY/LB1D1 |
Departure
| Time | 2026-04-09 23:15 |
|---|---|
| Airport | Amsterdam Airport Schiphol (EHAM) |
Arrival
| Time | 2026-04-10 07:09 |
|---|---|
| Airport | Toronto Pearson International Airport (CYYZ) |
| Time | Latitude | Longitude | Altitude | Speed | Heading |
|---|---|---|---|---|---|
| 2026-04-09 22:33 | 52.31322 | 4.76663 | 5 ft | 0 kts | 124° |
| 2026-04-09 22:59 | 52.31326 | 4.76653 | 5 ft | 2 kts | 124° |
| 2026-04-09 22:59 | 52.31332 | 4.76638 | 5 ft | 2 kts | 124° |
| 2026-04-09 22:59 | 52.31339 | 4.76623 | 6 ft | 2 kts | 124° |
| 2026-04-09 22:59 | 52.31345 | 4.76607 | 8 ft | 2 kts | 124° |
| 2026-04-09 23:00 | 52.31351 | 4.76592 | 7 ft | 2 kts | 124° |
| 2026-04-09 23:00 | 52.31358 | 4.76578 | 7 ft | 2 kts | 159° |
| 2026-04-09 23:00 | 52.31369 | 4.76574 | 6 ft | 2 kts | 173° |
| 2026-04-09 23:00 | 52.31380 | 4.76572 | 6 ft | 2 kts | 173° |
| 2026-04-09 23:01 | 52.31391 | 4.76569 | 5 ft | 2 kts | 175° |
| 2026-04-09 23:01 | 52.31402 | 4.76565 | 5 ft | 2 kts | 158° |
| 2026-04-09 23:01 | 52.31412 | 4.76560 | 5 ft | 2 kts | 162° |
| 2026-04-09 23:01 | 52.31423 | 4.76552 | 7 ft | 2 kts | 131° |
| 2026-04-09 23:02 | 52.31421 | 4.76555 | 6 ft | 0 kts | 131° |
| 2026-04-09 23:05 | 52.31420 | 4.76556 | 6 ft | 1 kts | 131° |
| 2026-04-09 23:05 | 52.31407 | 4.76581 | 6 ft | 3 kts | 131° |
| 2026-04-09 23:06 | 52.31404 | 4.76593 | 5 ft | 0 kts | 114° |
| 2026-04-09 23:06 | 52.31404 | 4.76600 | 5 ft | 1 kts | 100° |
| 2026-04-09 23:06 | 52.31406 | 4.76607 | 5 ft | 1 kts | 80° |
| 2026-04-09 23:06 | 52.31411 | 4.76614 | 5 ft | 1 kts | 53° |
| 2026-04-09 23:07 | 52.31417 | 4.76618 | 5 ft | 1 kts | 30° |
| 2026-04-09 23:07 | 52.31467 | 4.76688 | 5 ft | 8 kts | 64° |
| 2026-04-09 23:07 | 52.31477 | 4.76796 | 6 ft | 11 kts | 84° |
| 2026-04-09 23:08 | 52.31482 | 4.76941 | 5 ft | 13 kts | 89° |
| 2026-04-09 23:08 | 52.31486 | 4.77076 | 5 ft | 11 kts | 88° |
| 2026-04-09 23:08 | 52.31467 | 4.77184 | 6 ft | 9 kts | 124° |
| 2026-04-09 23:08 | 52.31430 | 4.77254 | 5 ft | 7 kts | 130° |
| 2026-04-09 23:09 | 52.31399 | 4.77312 | 5 ft | 6 kts | 131° |
| 2026-04-09 23:09 | 52.31372 | 4.77362 | 5 ft | 6 kts | 131° |
| 2026-04-09 23:09 | 52.31335 | 4.77431 | 5 ft | 9 kts | 131° |
| 2026-04-09 23:09 | 52.31295 | 4.77501 | 5 ft | 8 kts | 131° |
| 2026-04-09 23:10 | 52.31276 | 4.77599 | 5 ft | 10 kts | 118° |
| 2026-04-09 23:10 | 52.31207 | 4.77636 | 5 ft | 13 kts | 183° |
| 2026-04-09 23:10 | 52.31103 | 4.77628 | 5 ft | 17 kts | 182° |
| 2026-04-09 23:10 | 52.30982 | 4.77617 | 5 ft | 17 kts | 183° |
| 2026-04-09 23:11 | 52.30868 | 4.77607 | 5 ft | 16 kts | 183° |
| 2026-04-09 23:11 | 52.30766 | 4.77598 | 5 ft | 14 kts | 183° |
| 2026-04-09 23:11 | 52.30675 | 4.77588 | 5 ft | 12 kts | 186° |
| 2026-04-09 23:11 | 52.30602 | 4.77551 | 5 ft | 10 kts | 209° |
| 2026-04-09 23:12 | 52.30562 | 4.77474 | 6 ft | 8 kts | 239° |
| 2026-04-09 23:12 | 52.30532 | 4.77404 | 5 ft | 6 kts | 223° |
| 2026-04-09 23:12 | 52.30506 | 4.77394 | 5 ft | 2 kts | 172° |
| 2026-04-09 23:12 | 52.30480 | 4.77410 | 4 ft | 7 kts | 161° |
| 2026-04-09 23:13 | 52.30424 | 4.77392 | 1 ft | 10 kts | 199° |
| 2026-04-09 23:13 | 52.30360 | 4.77366 | 2 ft | 9 kts | 192° |
| 2026-04-09 23:13 | 52.30308 | 4.77343 | 1 ft | 6 kts | 207° |
| 2026-04-09 23:13 | 52.30282 | 4.77290 | 0 ft | 6 kts | 238° |
| 2026-04-09 23:14 | 52.30274 | 4.77270 | 0 ft | 0 kts | 238° |
| 2026-04-09 23:14 | 52.30265 | 4.77245 | 0 ft | 6 kts | 238° |
| 2026-04-09 23:14 | 52.30235 | 4.77168 | 2 ft | 10 kts | 238° |
| 2026-04-09 23:14 | 52.30169 | 4.76996 | 2 ft | 31 kts | 238° |
| 2026-04-09 23:15 | 52.29951 | 4.76425 | 3 ft | 94 kts | 238° |
| 2026-04-09 23:15 | 52.29479 | 4.75199 | 3 ft | 159 kts | 238° |
| 2026-04-09 23:15 | 52.28822 | 4.73521 | 309 ft | 181 kts | 242° |
| 2026-04-09 23:15 | 52.28112 | 4.71855 | 1051 ft | 176 kts | 235° |
| 2026-04-09 23:16 | 52.27492 | 4.70140 | 1972 ft | 170 kts | 243° |
| 2026-04-09 23:16 | 52.26933 | 4.68435 | 2355 ft | 185 kts | 241° |
| 2026-04-09 23:16 | 52.26183 | 4.66614 | 2949 ft | 195 kts | 231° |
| 2026-04-09 23:16 | 52.25229 | 4.65150 | 3752 ft | 183 kts | 226° |
| 2026-04-09 23:17 | 52.24478 | 4.63517 | 4266 ft | 182 kts | 246° |
| 2026-04-09 23:17 | 52.23968 | 4.61609 | 4736 ft | 185 kts | 255° |
| 2026-04-09 23:17 | 52.23504 | 4.59689 | 5218 ft | 186 kts | 249° |
| 2026-04-09 23:17 | 52.23075 | 4.57596 | 5642 ft | 210 kts | 259° |
| 2026-04-09 23:18 | 52.23029 | 4.55107 | 6188 ft | 228 kts | 282° |
| 2026-04-09 23:18 | 52.23707 | 4.52694 | 6691 ft | 247 kts | 308° |
| 2026-04-09 23:18 | 52.25094 | 4.50886 | 7212 ft | 262 kts | 329° |
| 2026-04-09 23:18 | 52.26741 | 4.49577 | 7981 ft | 267 kts | 332° |
| 2026-04-09 23:19 | 52.28444 | 4.48287 | 8739 ft | 270 kts | 332° |
| 2026-04-09 23:19 | 52.30172 | 4.46945 | 9279 ft | 284 kts | 330° |
| 2026-04-09 23:19 | 52.31936 | 4.45452 | 10034 ft | 284 kts | 328° |
| 2026-04-09 23:19 | 52.33656 | 4.43871 | 10847 ft | 282 kts | 326° |
| 2026-04-09 23:20 | 52.35396 | 4.42322 | 11425 ft | 293 kts | 336° |
| 2026-04-09 23:20 | 52.37444 | 4.41541 | 11745 ft | 313 kts | 348° |
| 2026-04-09 23:20 | 52.39652 | 4.41244 | 12084 ft | 329 kts | 351° |
| 2026-04-09 23:20 | 52.41991 | 4.40962 | 12370 ft | 344 kts | 351° |
| 2026-04-09 23:21 | 52.44376 | 4.40640 | 12878 ft | 350 kts | 350° |
| 2026-04-09 23:21 | 52.46868 | 4.40274 | 13110 ft | 365 kts | 350° |
| 2026-04-09 23:21 | 52.49405 | 4.39898 | 13725 ft | 367 kts | 350° |
| 2026-04-09 23:21 | 52.51964 | 4.39512 | 14280 ft | 370 kts | 349° |
| 2026-04-09 23:22 | 52.54542 | 4.39114 | 14786 ft | 374 kts | 349° |
| 2026-04-09 23:22 | 52.57141 | 4.38706 | 15293 ft | 377 kts | 349° |
| 2026-04-09 23:22 | 52.59764 | 4.38290 | 15795 ft | 381 kts | 349° |
| 2026-04-09 23:22 | 52.62426 | 4.37866 | 16296 ft | 385 kts | 349° |
| 2026-04-09 23:23 | 52.65098 | 4.37438 | 16802 ft | 389 kts | 349° |
| 2026-04-09 23:23 | 52.67811 | 4.37002 | 17287 ft | 393 kts | 348° |
| 2026-04-09 23:23 | 52.70520 | 4.36371 | 17739 ft | 393 kts | 342° |
| 2026-04-09 23:23 | 52.73076 | 4.35042 | 18215 ft | 388 kts | 330° |
| 2026-04-09 23:24 | 52.75358 | 4.32757 | 18656 ft | 382 kts | 315° |
| 2026-04-09 23:24 | 52.77181 | 4.29640 | 19092 ft | 376 kts | 302° |
| 2026-04-09 23:24 | 52.78589 | 4.26016 | 19544 ft | 375 kts | 295° |
| 2026-04-09 23:24 | 52.79830 | 4.22226 | 19980 ft | 376 kts | 294° |
| 2026-04-09 23:25 | 52.81042 | 4.18375 | 20425 ft | 378 kts | 294° |
| 2026-04-09 23:25 | 52.82268 | 4.14519 | 20882 ft | 380 kts | 294° |
| 2026-04-09 23:25 | 52.83522 | 4.10654 | 21343 ft | 382 kts | 294° |
| 2026-04-09 23:25 | 52.84799 | 4.06775 | 21808 ft | 385 kts | 295° |
| 2026-04-09 23:26 | 52.86093 | 4.02886 | 22262 ft | 387 kts | 295° |
| 2026-04-09 23:26 | 52.87399 | 3.98977 | 22725 ft | 389 kts | 295° |
| 2026-04-09 23:26 | 52.88715 | 3.95047 | 23211 ft | 391 kts | 295° |
| 2026-04-09 23:26 | 52.90037 | 3.91097 | 23676 ft | 393 kts | 295° |
| 2026-04-09 23:27 | 52.91349 | 3.87173 | 24052 ft | 395 kts | 295° |
| 2026-04-09 23:27 | 52.92687 | 3.83167 | 24450 ft | 397 kts | 295° |
| 2026-04-09 23:27 | 52.94027 | 3.79146 | 24838 ft | 399 kts | 295° |
| 2026-04-09 23:27 | 52.95375 | 3.75097 | 25229 ft | 402 kts | 295° |
| 2026-04-09 23:28 | 52.96726 | 3.71029 | 25597 ft | 404 kts | 295° |
| 2026-04-09 23:28 | 52.98081 | 3.66923 | 26003 ft | 407 kts | 295° |
| 2026-04-09 23:28 | 52.99443 | 3.62784 | 26383 ft | 409 kts | 295° |
| 2026-04-09 23:28 | 53.00808 | 3.58635 | 26754 ft | 412 kts | 295° |
| 2026-04-09 23:29 | 53.02186 | 3.54442 | 27115 ft | 414 kts | 295° |
| 2026-04-09 23:29 | 53.03570 | 3.50221 | 27486 ft | 417 kts | 295° |
| 2026-04-09 23:29 | 53.04964 | 3.45968 | 27866 ft | 420 kts | 295° |
| 2026-04-09 23:29 | 53.06367 | 3.41685 | 28219 ft | 423 kts | 295° |
| 2026-04-09 23:30 | 53.07760 | 3.37428 | 28577 ft | 426 kts | 295° |
| 2026-04-09 23:30 | 53.09174 | 3.33085 | 28924 ft | 429 kts | 294° |
| 2026-04-09 23:30 | 53.10357 | 3.28517 | 29267 ft | 428 kts | 285° |
| 2026-04-09 23:30 | 53.11174 | 3.23736 | 29571 ft | 430 kts | 281° |
| 2026-04-09 23:31 | 53.11824 | 3.18876 | 29813 ft | 432 kts | 279° |
| 2026-04-09 23:31 | 53.12424 | 3.13954 | 30000 ft | 434 kts | 279° |
| 2026-04-09 23:31 | 53.13024 | 3.09014 | 30144 ft | 435 kts | 279° |
| 2026-04-09 23:31 | 53.13637 | 3.04081 | 30275 ft | 436 kts | 280° |
| 2026-04-09 23:32 | 53.14269 | 2.99122 | 30408 ft | 437 kts | 280° |
| 2026-04-09 23:32 | 53.14909 | 2.94170 | 30533 ft | 437 kts | 280° |
| 2026-04-09 23:32 | 53.15554 | 2.89223 | 30668 ft | 437 kts | 280° |
| 2026-04-09 23:32 | 53.16199 | 2.84272 | 30789 ft | 437 kts | 281° |
| 2026-04-09 23:33 | 53.16835 | 2.79389 | 30905 ft | 437 kts | 281° |
| 2026-04-09 23:33 | 53.17477 | 2.74443 | 31051 ft | 437 kts | 280° |
| 2026-04-09 23:33 | 53.18116 | 2.69497 | 31170 ft | 436 kts | 281° |
| 2026-04-09 23:33 | 53.18751 | 2.64559 | 31298 ft | 436 kts | 281° |
| 2026-04-09 23:34 | 53.19389 | 2.59588 | 31429 ft | 436 kts | 281° |
| 2026-04-09 23:34 | 53.20019 | 2.54653 | 31562 ft | 436 kts | 281° |
| 2026-04-09 23:34 | 53.20644 | 2.49709 | 31693 ft | 435 kts | 280° |
| 2026-04-09 23:34 | 53.21256 | 2.44766 | 31821 ft | 435 kts | 280° |
| 2026-04-09 23:35 | 53.21868 | 2.39823 | 31952 ft | 434 kts | 281° |
| 2026-04-09 23:35 | 53.22480 | 2.34891 | 32095 ft | 434 kts | 281° |
| 2026-04-09 23:35 | 53.23089 | 2.30011 | 32222 ft | 434 kts | 281° |
| 2026-04-09 23:35 | 53.23711 | 2.25025 | 32356 ft | 433 kts | 281° |
| 2026-04-09 23:36 | 53.24318 | 2.20157 | 32487 ft | 433 kts | 281° |
| 2026-04-09 23:36 | 53.24931 | 2.15234 | 32640 ft | 433 kts | 281° |
| 2026-04-09 23:36 | 53.25543 | 2.10305 | 32771 ft | 432 kts | 281° |
| 2026-04-09 23:36 | 53.26150 | 2.05391 | 32905 ft | 432 kts | 281° |
| 2026-04-09 23:37 | 53.26756 | 2.00466 | 33036 ft | 432 kts | 281° |
| 2026-04-09 23:37 | 53.27359 | 1.95553 | 33186 ft | 432 kts | 281° |
| 2026-04-09 23:37 | 53.27959 | 1.90645 | 33326 ft | 431 kts | 281° |
| 2026-04-09 23:37 | 53.28557 | 1.85733 | 33461 ft | 431 kts | 281° |
| 2026-04-09 23:38 | 53.29152 | 1.80831 | 33595 ft | 431 kts | 281° |
| 2026-04-09 23:38 | 53.29746 | 1.75918 | 33751 ft | 430 kts | 281° |
| 2026-04-09 23:38 | 53.30335 | 1.71023 | 33910 ft | 429 kts | 281° |
| 2026-04-09 23:38 | 53.30919 | 1.66153 | 34079 ft | 429 kts | 281° |
| 2026-04-09 23:39 | 53.31510 | 1.61213 | 34095 ft | 434 kts | 281° |
| 2026-04-09 23:39 | 53.32710 | 1.51249 | 34100 ft | 439 kts | 282° |
| 2026-04-09 23:40 | 53.33837 | 1.42971 | 34088 ft | 439 kts | 283° |
| 2026-04-09 23:40 | 53.35512 | 1.31432 | 34098 ft | 438 kts | 283° |
| 2026-04-09 23:41 | 53.36958 | 1.21503 | 34105 ft | 439 kts | 283° |
| 2026-04-09 23:41 | 53.38149 | 1.13257 | 34103 ft | 438 kts | 283° |
| 2026-04-09 23:42 | 53.39570 | 1.03327 | 34100 ft | 438 kts | 283° |
| 2026-04-09 23:42 | 53.40980 | 0.93412 | 34110 ft | 437 kts | 283° |
| 2026-04-09 23:43 | 53.42377 | 0.83518 | 34101 ft | 436 kts | 283° |
| 2026-04-09 23:43 | 53.43766 | 0.73623 | 34113 ft | 435 kts | 282° |
| 2026-04-09 23:44 | 53.45142 | 0.63757 | 34108 ft | 434 kts | 282° |
| 2026-04-09 23:44 | 53.46507 | 0.53899 | 34112 ft | 433 kts | 282° |
| 2026-04-09 23:45 | 53.47851 | 0.44131 | 34109 ft | 432 kts | 282° |
| 2026-04-09 23:45 | 53.49164 | 0.34291 | 34109 ft | 431 kts | 282° |
| 2026-04-09 23:46 | 53.50465 | 0.24460 | 34106 ft | 431 kts | 282° |
| 2026-04-09 23:46 | 53.51780 | 0.14636 | 34108 ft | 430 kts | 282° |
| 2026-04-09 23:47 | 53.53084 | 0.04842 | 34105 ft | 429 kts | 281° |
| 2026-04-09 23:47 | 53.53724 | -0.00004 | 34240 ft | 429 kts | 281° |
| 2026-04-09 23:47 | 53.54376 | -0.04933 | 34170 ft | 422 kts | 281° |
| 2026-04-09 23:48 | 53.55634 | -0.14469 | 34109 ft | 419 kts | 281° |
| 2026-04-09 23:48 | 53.56890 | -0.24047 | 34107 ft | 419 kts | 281° |
| 2026-04-09 23:49 | 53.58131 | -0.33619 | 34092 ft | 419 kts | 281° |
| 2026-04-09 23:49 | 53.59358 | -0.43198 | 34097 ft | 418 kts | 281° |
| 2026-04-09 23:50 | 53.60582 | -0.52756 | 34098 ft | 417 kts | 281° |
| 2026-04-09 23:50 | 53.61802 | -0.62308 | 34098 ft | 416 kts | 281° |
| 2026-04-09 23:51 | 53.63012 | -0.71843 | 34097 ft | 416 kts | 280° |
| 2026-04-09 23:51 | 53.64216 | -0.81388 | 34106 ft | 416 kts | 280° |
| 2026-04-09 23:52 | 53.65396 | -0.90869 | 34102 ft | 415 kts | 280° |
| 2026-04-09 23:52 | 53.66561 | -1.00415 | 34098 ft | 415 kts | 280° |
| 2026-04-09 23:53 | 53.67729 | -1.09953 | 34096 ft | 415 kts | 280° |
| 2026-04-09 23:53 | 53.68895 | -1.19483 | 34089 ft | 415 kts | 280° |
| 2026-04-09 23:54 | 53.70057 | -1.29022 | 34078 ft | 415 kts | 280° |
| 2026-04-09 23:54 | 53.71210 | -1.38566 | 34070 ft | 415 kts | 280° |
| 2026-04-09 23:55 | 53.72344 | -1.48127 | 34062 ft | 415 kts | 280° |
| 2026-04-09 23:55 | 53.73463 | -1.57705 | 34052 ft | 415 kts | 279° |
| 2026-04-09 23:56 | 53.74520 | -1.67249 | 34052 ft | 415 kts | 279° |
| 2026-04-09 23:56 | 53.75563 | -1.76859 | 34055 ft | 416 kts | 279° |
| 2026-04-09 23:57 | 53.76603 | -1.86475 | 34079 ft | 416 kts | 279° |
| 2026-04-09 23:57 | 53.77641 | -1.96114 | 34083 ft | 417 kts | 279° |
| 2026-04-09 23:58 | 53.78673 | -2.05781 | 34090 ft | 418 kts | 279° |
| 2026-04-09 23:58 | 53.79701 | -2.15475 | 34096 ft | 419 kts | 279° |
| 2026-04-09 23:59 | 53.80721 | -2.25177 | 34105 ft | 420 kts | 279° |
| 2026-04-09 23:59 | 53.81730 | -2.34855 | 34107 ft | 420 kts | 279° |
| 2026-04-10 00:00 | 53.82737 | -2.44602 | 34113 ft | 420 kts | 279° |
| 2026-04-10 00:00 | 53.83740 | -2.54375 | 34116 ft | 420 kts | 279° |
| 2026-04-10 00:01 | 53.84731 | -2.64126 | 34131 ft | 420 kts | 279° |
| 2026-04-10 00:01 | 53.85706 | -2.73798 | 34125 ft | 419 kts | 279° |
| 2026-04-10 00:02 | 53.86681 | -2.83543 | 34127 ft | 419 kts | 279° |
| 2026-04-10 00:02 | 53.87646 | -2.93280 | 34136 ft | 419 kts | 279° |
| 2026-04-10 00:03 | 53.88558 | -3.03011 | 34134 ft | 418 kts | 278° |
| 2026-04-10 00:03 | 53.89469 | -3.12761 | 34137 ft | 418 kts | 278° |
| 2026-04-10 00:04 | 53.90398 | -3.22497 | 34135 ft | 418 kts | 278° |
| 2026-04-10 00:04 | 53.91326 | -3.32215 | 34144 ft | 417 kts | 278° |
| 2026-04-10 00:05 | 53.92247 | -3.41922 | 34145 ft | 417 kts | 278° |
| 2026-04-10 00:05 | 53.93524 | -3.51448 | 34147 ft | 417 kts | 285° |
| 2026-04-10 00:06 | 53.95337 | -3.60802 | 34153 ft | 417 kts | 287° |
| 2026-04-10 00:06 | 53.97204 | -3.70130 | 34152 ft | 416 kts | 287° |
| 2026-04-10 00:07 | 53.99037 | -3.79483 | 34153 ft | 416 kts | 286° |
| 2026-04-10 00:07 | 54.00841 | -3.88818 | 34155 ft | 415 kts | 286° |
| 2026-04-10 00:08 | 54.02629 | -3.98141 | 34154 ft | 415 kts | 286° |
| 2026-04-10 00:08 | 54.04407 | -4.07456 | 34157 ft | 414 kts | 286° |
| 2026-04-10 00:09 | 54.06166 | -4.16717 | 34149 ft | 413 kts | 285° |
| 2026-04-10 00:09 | 54.07929 | -4.26047 | 34147 ft | 413 kts | 285° |
| 2026-04-10 00:10 | 54.09685 | -4.35383 | 34136 ft | 413 kts | 285° |
| 2026-04-10 00:10 | 54.11431 | -4.44710 | 34132 ft | 413 kts | 285° |
| 2026-04-10 00:11 | 54.13168 | -4.54039 | 34124 ft | 413 kts | 285° |
| 2026-04-10 00:11 | 54.14900 | -4.63388 | 34140 ft | 413 kts | 285° |
| 2026-04-10 00:12 | 54.16624 | -4.72741 | 34136 ft | 413 kts | 285° |
| 2026-04-10 00:12 | 54.18323 | -4.82047 | 34138 ft | 413 kts | 284° |
| 2026-04-10 00:13 | 54.19981 | -4.91416 | 34150 ft | 412 kts | 284° |
| 2026-04-10 00:13 | 54.21631 | -5.00655 | 34153 ft | 412 kts | 284° |
| 2026-04-10 00:14 | 54.23313 | -5.10007 | 34155 ft | 411 kts | 284° |
| 2026-04-10 00:14 | 54.24995 | -5.19364 | 34159 ft | 411 kts | 284° |
| 2026-04-10 00:15 | 54.26667 | -5.28708 | 34159 ft | 410 kts | 284° |
| 2026-04-10 00:15 | 54.29152 | -5.42697 | 34159 ft | 410 kts | 284° |
| 2026-04-10 00:16 | 54.30800 | -5.52034 | 34157 ft | 410 kts | 284° |
| 2026-04-10 00:16 | 54.32432 | -5.61325 | 34161 ft | 409 kts | 284° |
| 2026-04-10 00:17 | 54.34066 | -5.70679 | 34158 ft | 410 kts | 284° |
| 2026-04-10 00:17 | 54.35692 | -5.80033 | 34159 ft | 410 kts | 284° |
| 2026-04-10 00:18 | 54.37312 | -5.89408 | 34157 ft | 410 kts | 284° |
| 2026-04-10 00:18 | 54.38928 | -5.98801 | 34156 ft | 410 kts | 284° |
| 2026-04-10 00:19 | 54.40533 | -6.08184 | 34159 ft | 410 kts | 284° |
| 2026-04-10 00:19 | 54.42128 | -6.17591 | 34159 ft | 410 kts | 283° |
| 2026-04-10 00:20 | 54.43662 | -6.26963 | 34157 ft | 410 kts | 283° |
| 2026-04-10 00:20 | 54.45218 | -6.36388 | 34160 ft | 410 kts | 283° |
| 2026-04-10 00:21 | 54.46792 | -6.45834 | 34158 ft | 410 kts | 283° |
| 2026-04-10 00:21 | 54.48363 | -6.55271 | 34157 ft | 410 kts | 283° |
| 2026-04-10 00:22 | 54.49926 | -6.64707 | 34159 ft | 410 kts | 283° |
| 2026-04-10 00:22 | 54.51481 | -6.74151 | 34157 ft | 410 kts | 283° |
| 2026-04-10 00:23 | 54.53028 | -6.83593 | 34159 ft | 409 kts | 283° |
| 2026-04-10 00:23 | 54.54557 | -6.92977 | 34158 ft | 409 kts | 283° |
| 2026-04-10 00:24 | 54.56086 | -7.02419 | 34150 ft | 409 kts | 283° |
| 2026-04-10 00:24 | 54.57608 | -7.11862 | 34159 ft | 409 kts | 283° |
| 2026-04-10 00:25 | 54.59125 | -7.21334 | 34156 ft | 409 kts | 283° |
| 2026-04-10 00:25 | 54.60632 | -7.30796 | 34156 ft | 409 kts | 283° |
| 2026-04-10 00:26 | 54.62134 | -7.40275 | 34158 ft | 409 kts | 283° |
| 2026-04-10 00:26 | 54.63626 | -7.49748 | 34155 ft | 409 kts | 283° |
| 2026-04-10 00:27 | 54.65086 | -7.59244 | 34157 ft | 409 kts | 282° |
| 2026-04-10 00:27 | 54.66276 | -7.67152 | 34150 ft | 409 kts | 282° |
| 2026-04-10 00:28 | 54.67971 | -7.78254 | 34156 ft | 409 kts | 282° |
| 2026-04-10 00:28 | 54.69185 | -7.86159 | 34151 ft | 409 kts | 282° |
| 2026-04-10 00:29 | 54.70642 | -7.95674 | 34156 ft | 409 kts | 282° |
| 2026-04-10 00:29 | 54.72090 | -8.05185 | 34152 ft | 409 kts | 282° |
| 2026-04-10 00:30 | 54.73534 | -8.14723 | 34153 ft | 409 kts | 282° |
| 2026-04-10 00:30 | 54.74970 | -8.24262 | 34153 ft | 409 kts | 282° |
| 2026-04-10 00:31 | 54.76397 | -8.33802 | 34153 ft | 409 kts | 282° |
| 2026-04-10 00:31 | 54.77809 | -8.43297 | 34151 ft | 409 kts | 282° |
| 2026-04-10 00:32 | 54.79220 | -8.52840 | 34150 ft | 409 kts | 282° |
| 2026-04-10 00:32 | 54.80624 | -8.62398 | 34146 ft | 409 kts | 282° |
| 2026-04-10 00:33 | 54.82021 | -8.71962 | 34148 ft | 409 kts | 282° |
| 2026-04-10 00:33 | 54.83410 | -8.81532 | 34147 ft | 409 kts | 282° |
| 2026-04-10 00:34 | 54.84794 | -8.91123 | 34142 ft | 409 kts | 282° |
| 2026-04-10 00:34 | 54.86131 | -9.00725 | 34136 ft | 409 kts | 281° |
| 2026-04-10 00:35 | 54.87457 | -9.10326 | 34138 ft | 409 kts | 281° |
| 2026-04-10 00:35 | 54.88803 | -9.19928 | 34143 ft | 409 kts | 281° |
| 2026-04-10 00:36 | 54.90150 | -9.29518 | 34139 ft | 409 kts | 281° |
| 2026-04-10 00:36 | 54.91492 | -9.39112 | 34133 ft | 408 kts | 281° |
| 2026-04-10 00:37 | 54.92818 | -9.48653 | 34138 ft | 408 kts | 281° |
| 2026-04-10 00:37 | 54.94144 | -9.58255 | 34139 ft | 408 kts | 281° |
| 2026-04-10 00:38 | 54.95463 | -9.67865 | 34138 ft | 408 kts | 281° |
| 2026-04-10 00:38 | 54.96775 | -9.77488 | 34169 ft | 406 kts | 281° |
| 2026-04-10 00:39 | 54.97421 | -9.82248 | 34288 ft | 403 kts | 281° |
| 2026-04-10 00:39 | 54.98062 | -9.86988 | 34398 ft | 401 kts | 281° |
| 2026-04-10 00:39 | 54.98699 | -9.91711 | 34519 ft | 400 kts | 281° |
| 2026-04-10 00:39 | 54.99450 | -9.96385 | 34628 ft | 402 kts | 285° |
| 2026-04-10 00:40 | 55.00382 | -10.00993 | 34742 ft | 403 kts | 287° |
| 2026-04-10 00:40 | 55.01393 | -10.05560 | 34864 ft | 404 kts | 288° |
| 2026-04-10 00:40 | 55.02433 | -10.10117 | 34972 ft | 405 kts | 288° |
| 2026-04-10 00:40 | 55.03480 | -10.14697 | 35102 ft | 409 kts | 288° |
| 2026-04-10 00:41 | 55.04533 | -10.19330 | 35211 ft | 413 kts | 288° |
| 2026-04-10 00:41 | 55.05577 | -10.23957 | 35315 ft | 416 kts | 288° |
| 2026-04-10 00:41 | 55.06633 | -10.28663 | 35454 ft | 419 kts | 288° |
| 2026-04-10 00:41 | 55.07695 | -10.33415 | 35610 ft | 420 kts | 288° |
| 2026-04-10 00:42 | 55.08754 | -10.38170 | 35787 ft | 421 kts | 288° |
| 2026-04-10 00:42 | 55.09813 | -10.42941 | 35983 ft | 421 kts | 288° |
| 2026-04-10 00:42 | 55.10869 | -10.47709 | 36092 ft | 422 kts | 288° |
| 2026-04-10 00:42 | 55.11927 | -10.52501 | 36118 ft | 423 kts | 287° |
| 2026-04-10 00:43 | 55.14042 | -10.62108 | 36122 ft | 423 kts | 287° |
| 2026-04-10 00:43 | 55.16148 | -10.71722 | 36121 ft | 423 kts | 287° |
| 2026-04-10 00:44 | 55.18235 | -10.81292 | 36125 ft | 423 kts | 287° |
| 2026-04-10 00:44 | 55.20334 | -10.90964 | 36106 ft | 427 kts | 287° |
| 2026-04-10 00:45 | 55.22439 | -11.00712 | 36113 ft | 429 kts | 287° |
| 2026-04-10 00:45 | 55.24542 | -11.10488 | 36110 ft | 429 kts | 287° |
| 2026-04-10 00:46 | 55.26639 | -11.20288 | 36107 ft | 429 kts | 287° |
| 2026-04-10 00:46 | 55.28727 | -11.30117 | 36105 ft | 429 kts | 287° |
| 2026-04-10 00:47 | 55.30759 | -11.39965 | 36103 ft | 429 kts | 286° |
| 2026-04-10 00:47 | 55.32790 | -11.49750 | 36102 ft | 429 kts | 287° |
| 2026-04-10 00:48 | 55.34849 | -11.59598 | 36099 ft | 430 kts | 287° |
| 2026-04-10 00:48 | 55.36911 | -11.69468 | 36098 ft | 430 kts | 287° |
| 2026-04-10 00:49 | 55.38966 | -11.79354 | 36096 ft | 430 kts | 286° |
| 2026-04-10 00:49 | 55.41013 | -11.89250 | 36091 ft | 430 kts | 286° |
| 2026-04-10 00:50 | 55.43049 | -11.99144 | 36092 ft | 430 kts | 286° |
| 2026-04-10 00:50 | 55.45081 | -12.09070 | 36089 ft | 430 kts | 286° |
| 2026-04-10 00:51 | 55.47105 | -12.19005 | 36085 ft | 430 kts | 286° |
| 2026-04-10 00:51 | 55.49109 | -12.28891 | 36081 ft | 431 kts | 286° |
| 2026-04-10 00:52 | 55.51116 | -12.38839 | 36079 ft | 431 kts | 286° |
| 2026-04-10 00:52 | 55.53117 | -12.48811 | 36077 ft | 431 kts | 285° |
| 2026-04-10 00:53 | 55.55110 | -12.58792 | 36077 ft | 431 kts | 285° |
| 2026-04-10 00:53 | 55.57089 | -12.68805 | 36073 ft | 431 kts | 285° |
| 2026-04-10 00:54 | 55.59018 | -12.78850 | 36068 ft | 431 kts | 285° |
| 2026-04-10 00:54 | 55.60964 | -12.88892 | 36065 ft | 431 kts | 285° |
| 2026-04-10 00:55 | 55.62919 | -12.98921 | 36068 ft | 432 kts | 285° |
| 2026-04-10 00:55 | 55.64878 | -13.08983 | 36062 ft | 432 kts | 285° |
| 2026-04-10 00:56 | 55.66813 | -13.18977 | 36061 ft | 432 kts | 285° |
| 2026-04-10 00:56 | 55.68754 | -13.29057 | 36063 ft | 432 kts | 285° |
| 2026-04-10 00:57 | 55.70689 | -13.39156 | 36056 ft | 432 kts | 285° |
| 2026-04-10 00:57 | 55.72617 | -13.49272 | 36060 ft | 433 kts | 285° |
| 2026-04-10 00:58 | 55.74536 | -13.59398 | 36050 ft | 433 kts | 284° |
| 2026-04-10 00:58 | 55.76450 | -13.69549 | 36047 ft | 433 kts | 284° |
| 2026-04-10 00:59 | 55.78352 | -13.79695 | 36041 ft | 433 kts | 284° |
| 2026-04-10 00:59 | 55.80238 | -13.89802 | 36042 ft | 433 kts | 284° |
| 2026-04-10 01:00 | 55.82125 | -13.99975 | 36041 ft | 433 kts | 284° |
| 2026-04-10 01:00 | 55.83986 | -14.10169 | 36039 ft | 433 kts | 284° |
| 2026-04-10 01:01 | 55.85805 | -14.20381 | 36029 ft | 433 kts | 284° |
| 2026-04-10 01:01 | 55.87646 | -14.30598 | 36030 ft | 433 kts | 284° |
| 2026-04-10 01:02 | 55.89497 | -14.40817 | 36035 ft | 434 kts | 284° |
| 2026-04-10 01:02 | 55.91345 | -14.51057 | 36021 ft | 434 kts | 284° |
| 2026-04-10 01:03 | 55.93186 | -14.61307 | 36017 ft | 434 kts | 284° |
| 2026-04-10 01:03 | 55.95019 | -14.71576 | 36018 ft | 434 kts | 284° |
| 2026-04-10 01:04 | 55.96843 | -14.81848 | 36013 ft | 434 kts | 283° |
| 2026-04-10 01:04 | 55.98659 | -14.92143 | 36014 ft | 434 kts | 283° |
| 2026-04-10 01:05 | 56.00550 | -15.02388 | 36011 ft | 435 kts | 286° |
| 2026-04-10 01:05 | 56.02753 | -15.12503 | 36010 ft | 437 kts | 287° |
| 2026-04-10 01:06 | 56.05019 | -15.22519 | 36004 ft | 437 kts | 287° |
| 2026-04-10 01:06 | 56.07288 | -15.32612 | 36004 ft | 437 kts | 287° |
| 2026-04-10 01:07 | 56.09541 | -15.42735 | 35989 ft | 437 kts | 287° |
| 2026-04-10 01:07 | 56.11782 | -15.52869 | 35995 ft | 437 kts | 287° |
| 2026-04-10 01:08 | 56.14016 | -15.63026 | 35994 ft | 438 kts | 287° |
| 2026-04-10 01:08 | 56.16242 | -15.73193 | 35989 ft | 438 kts | 287° |
| 2026-04-10 01:09 | 56.18461 | -15.83382 | 35984 ft | 438 kts | 287° |
| 2026-04-10 01:09 | 56.20658 | -15.93516 | 35978 ft | 438 kts | 287° |
| 2026-04-10 01:10 | 56.22862 | -16.03732 | 35977 ft | 438 kts | 287° |
| 2026-04-10 01:10 | 56.25058 | -16.13963 | 35970 ft | 438 kts | 286° |
| 2026-04-10 01:11 | 56.27246 | -16.24206 | 35969 ft | 439 kts | 286° |
| 2026-04-10 01:11 | 56.29427 | -16.34471 | 35967 ft | 439 kts | 286° |
| 2026-04-10 01:12 | 56.31560 | -16.44764 | 35965 ft | 439 kts | 285° |
| 2026-04-10 01:12 | 56.33686 | -16.55085 | 35962 ft | 439 kts | 286° |
| 2026-04-10 01:13 | 56.35832 | -16.65408 | 35958 ft | 440 kts | 286° |
| 2026-04-10 01:13 | 56.37968 | -16.75671 | 35949 ft | 440 kts | 286° |
| 2026-04-10 01:14 | 56.40112 | -16.86016 | 35949 ft | 440 kts | 285° |
| 2026-04-10 01:14 | 56.42248 | -16.96377 | 35944 ft | 440 kts | 285° |
| 2026-04-10 01:15 | 56.44030 | -17.05065 | 35943 ft | 440 kts | 285° |
| 2026-04-10 01:15 | 56.46153 | -17.15463 | 35940 ft | 441 kts | 285° |
| 2026-04-10 01:16 | 56.48269 | -17.25884 | 35938 ft | 441 kts | 285° |
| 2026-04-10 01:17 | 56.51415 | -17.41475 | 35931 ft | 442 kts | 285° |
| 2026-04-10 01:17 | 56.53512 | -17.51942 | 35928 ft | 442 kts | 285° |
| 2026-04-10 01:18 | 56.55607 | -17.62447 | 35923 ft | 443 kts | 285° |
| 2026-04-10 01:18 | 56.57690 | -17.72951 | 35921 ft | 443 kts | 285° |
| 2026-04-10 01:19 | 56.59739 | -17.83488 | 35917 ft | 443 kts | 284° |
| 2026-04-10 01:19 | 56.61760 | -17.94064 | 35913 ft | 443 kts | 284° |
| 2026-04-10 01:20 | 56.63790 | -18.04573 | 35909 ft | 443 kts | 284° |
| 2026-04-10 01:20 | 56.65841 | -18.15153 | 35903 ft | 444 kts | 284° |
| 2026-04-10 01:21 | 56.67886 | -18.25745 | 35901 ft | 444 kts | 284° |
| 2026-04-10 01:21 | 56.69923 | -18.36350 | 35899 ft | 444 kts | 284° |
| 2026-04-10 01:22 | 56.71950 | -18.46969 | 35895 ft | 444 kts | 284° |
| 2026-04-10 01:22 | 56.73970 | -18.57612 | 35892 ft | 444 kts | 284° |
| 2026-04-10 01:23 | 56.75969 | -18.68201 | 35893 ft | 445 kts | 284° |
| 2026-04-10 01:23 | 56.77977 | -18.78899 | 35884 ft | 445 kts | 284° |
| 2026-04-10 01:24 | 56.79973 | -18.89593 | 35871 ft | 445 kts | 284° |
| 2026-04-10 01:24 | 56.81960 | -19.00298 | 35875 ft | 445 kts | 284° |
| 2026-04-10 01:25 | 56.83942 | -19.11035 | 35879 ft | 446 kts | 283° |
| 2026-04-10 01:25 | 56.85907 | -19.21773 | 35870 ft | 446 kts | 283° |
| 2026-04-10 01:26 | 56.87816 | -19.32557 | 35865 ft | 446 kts | 283° |
| 2026-04-10 01:26 | 56.89739 | -19.43349 | 35866 ft | 446 kts | 283° |
| 2026-04-10 01:27 | 56.91668 | -19.54089 | 35857 ft | 447 kts | 283° |
| 2026-04-10 01:27 | 56.93607 | -19.64902 | 35853 ft | 447 kts | 283° |
| 2026-04-10 01:28 | 56.95539 | -19.75735 | 35851 ft | 448 kts | 283° |
| 2026-04-10 01:28 | 56.97464 | -19.86593 | 35848 ft | 448 kts | 283° |
| 2026-04-10 01:29 | 56.99380 | -19.97472 | 35844 ft | 448 kts | 283° |
| 2026-04-10 01:29 | 57.01287 | -20.08364 | 35838 ft | 449 kts | 283° |
| 2026-04-10 01:30 | 57.02996 | -20.19362 | 35830 ft | 447 kts | 279° |
| 2026-04-10 01:30 | 57.04524 | -20.30433 | 35834 ft | 447 kts | 279° |
| 2026-04-10 01:31 | 57.06050 | -20.41510 | 35829 ft | 448 kts | 279° |
| 2026-04-10 01:31 | 57.07587 | -20.52597 | 35821 ft | 448 kts | 279° |
| 2026-04-10 01:32 | 57.09113 | -20.63622 | 35824 ft | 448 kts | 279° |
| 2026-04-10 01:32 | 57.10642 | -20.74744 | 35817 ft | 448 kts | 279° |
| 2026-04-10 01:33 | 57.12159 | -20.85867 | 35804 ft | 448 kts | 279° |
| 2026-04-10 01:33 | 57.13670 | -20.97023 | 35806 ft | 449 kts | 279° |
| 2026-04-10 01:34 | 57.15168 | -21.08176 | 35800 ft | 449 kts | 279° |
| 2026-04-10 01:34 | 57.16661 | -21.19363 | 35798 ft | 449 kts | 279° |
| 2026-04-10 01:35 | 57.18143 | -21.30557 | 35792 ft | 450 kts | 279° |
| 2026-04-10 01:35 | 57.19616 | -21.41768 | 35786 ft | 450 kts | 279° |
| 2026-04-10 01:36 | 57.21080 | -21.52997 | 35783 ft | 450 kts | 278° |
| 2026-04-10 01:36 | 57.22510 | -21.64239 | 35779 ft | 450 kts | 278° |
| 2026-04-10 01:37 | 57.23894 | -21.75456 | 35773 ft | 451 kts | 278° |
| 2026-04-10 01:37 | 57.25307 | -21.86735 | 35769 ft | 451 kts | 278° |
| 2026-04-10 01:38 | 57.26733 | -21.98040 | 35763 ft | 452 kts | 278° |
| 2026-04-10 01:38 | 57.28153 | -22.09348 | 35759 ft | 452 kts | 278° |
| 2026-04-10 01:39 | 57.29566 | -22.20697 | 35754 ft | 452 kts | 278° |
| 2026-04-10 01:39 | 57.30968 | -22.32054 | 35750 ft | 452 kts | 278° |
| 2026-04-10 01:40 | 57.32349 | -22.43333 | 35743 ft | 452 kts | 278° |
| 2026-04-10 01:40 | 57.33731 | -22.54706 | 35747 ft | 453 kts | 278° |
| 2026-04-10 01:41 | 57.35104 | -22.66106 | 35731 ft | 453 kts | 277° |
| 2026-04-10 01:41 | 57.36465 | -22.77497 | 35733 ft | 453 kts | 277° |
| 2026-04-10 01:42 | 57.37817 | -22.88908 | 35725 ft | 453 kts | 277° |
| 2026-04-10 01:42 | 57.39158 | -23.00329 | 35718 ft | 454 kts | 277° |
| 2026-04-10 01:43 | 57.40480 | -23.11782 | 35718 ft | 454 kts | 277° |
| 2026-04-10 01:43 | 57.41735 | -23.23176 | 35713 ft | 454 kts | 277° |
| 2026-04-10 01:44 | 57.43021 | -23.34670 | 35707 ft | 455 kts | 277° |
| 2026-04-10 01:44 | 57.44322 | -23.46182 | 35702 ft | 455 kts | 277° |
| 2026-04-10 01:45 | 57.45620 | -23.57706 | 35695 ft | 456 kts | 277° |
| 2026-04-10 01:45 | 57.46909 | -23.69261 | 35698 ft | 457 kts | 277° |
| 2026-04-10 01:46 | 57.48181 | -23.80766 | 35690 ft | 457 kts | 277° |
| 2026-04-10 01:46 | 57.49451 | -23.92362 | 35688 ft | 458 kts | 276° |
| 2026-04-10 01:47 | 57.50714 | -24.03990 | 35683 ft | 459 kts | 276° |
| 2026-04-10 01:47 | 57.51967 | -24.15642 | 35675 ft | 460 kts | 276° |
| 2026-04-10 01:48 | 57.53211 | -24.27321 | 35670 ft | 460 kts | 276° |
| 2026-04-10 01:48 | 57.54446 | -24.39020 | 35666 ft | 461 kts | 276° |
| 2026-04-10 01:49 | 57.55666 | -24.50680 | 35662 ft | 461 kts | 276° |
| 2026-04-10 01:49 | 57.56874 | -24.62434 | 35658 ft | 461 kts | 276° |
| 2026-04-10 01:50 | 57.58019 | -24.74208 | 35653 ft | 462 kts | 276° |
| 2026-04-10 01:50 | 57.59183 | -24.85984 | 35647 ft | 462 kts | 276° |
| 2026-04-10 01:51 | 57.60364 | -24.97789 | 35648 ft | 462 kts | 276° |
| 2026-04-10 01:51 | 57.61539 | -25.09580 | 35642 ft | 462 kts | 276° |
| 2026-04-10 01:52 | 57.62703 | -25.21377 | 35638 ft | 462 kts | 276° |
| 2026-04-10 01:52 | 57.63847 | -25.33095 | 35635 ft | 462 kts | 276° |
| 2026-04-10 01:53 | 57.64990 | -25.44921 | 35639 ft | 462 kts | 276° |
| 2026-04-10 01:53 | 57.66120 | -25.56741 | 35633 ft | 462 kts | 275° |
| 2026-04-10 01:54 | 57.67239 | -25.68575 | 35631 ft | 462 kts | 275° |
| 2026-04-10 01:54 | 57.68347 | -25.80410 | 35629 ft | 463 kts | 275° |
| 2026-04-10 01:55 | 57.69445 | -25.92266 | 35628 ft | 463 kts | 275° |
| 2026-04-10 01:55 | 57.70533 | -26.04136 | 35634 ft | 463 kts | 275° |
| 2026-04-10 01:56 | 57.71592 | -26.15968 | 35628 ft | 464 kts | 275° |
| 2026-04-10 01:56 | 57.72598 | -26.27889 | 35630 ft | 464 kts | 275° |
| 2026-04-10 01:57 | 57.73626 | -26.39828 | 35629 ft | 465 kts | 275° |
| 2026-04-10 01:57 | 57.74669 | -26.51774 | 35627 ft | 465 kts | 275° |
| 2026-04-10 01:58 | 57.75707 | -26.63740 | 35627 ft | 466 kts | 275° |
| 2026-04-10 01:58 | 57.76735 | -26.75724 | 35629 ft | 466 kts | 275° |
| 2026-04-10 01:59 | 57.77753 | -26.87740 | 35628 ft | 467 kts | 275° |
| 2026-04-10 01:59 | 57.78760 | -26.99772 | 35624 ft | 468 kts | 275° |
| 2026-04-10 02:00 | 57.79751 | -27.11759 | 35625 ft | 468 kts | 275° |
| 2026-04-10 02:00 | 57.80739 | -27.23843 | 35624 ft | 469 kts | 274° |
| 2026-04-10 02:01 | 57.81715 | -27.35940 | 35623 ft | 469 kts | 274° |
| 2026-04-10 02:01 | 57.82680 | -27.48043 | 35621 ft | 470 kts | 274° |
| 2026-04-10 02:02 | 57.83477 | -27.58159 | 35620 ft | 470 kts | 274° |
| 2026-04-10 02:02 | 57.84555 | -27.72361 | 35620 ft | 471 kts | 274° |
| 2026-04-10 02:03 | 57.85426 | -27.84491 | 35618 ft | 471 kts | 274° |
| 2026-04-10 02:03 | 57.86179 | -27.94716 | 35618 ft | 472 kts | 274° |
| 2026-04-10 02:04 | 57.87092 | -28.06955 | 35606 ft | 473 kts | 274° |
| 2026-04-10 02:04 | 57.87997 | -28.19189 | 35610 ft | 473 kts | 274° |
| 2026-04-10 02:05 | 57.88886 | -28.31369 | 35617 ft | 473 kts | 274° |
| 2026-04-10 02:05 | 57.89769 | -28.43643 | 35606 ft | 474 kts | 274° |
| 2026-04-10 02:06 | 57.90640 | -28.55925 | 35608 ft | 474 kts | 274° |
| 2026-04-10 02:06 | 57.91498 | -28.68207 | 35610 ft | 474 kts | 274° |
| 2026-04-10 02:07 | 57.92347 | -28.80523 | 35610 ft | 474 kts | 274° |
| 2026-04-10 02:07 | 57.93183 | -28.92841 | 35611 ft | 475 kts | 274° |
| 2026-04-10 02:08 | 57.94008 | -29.05175 | 35608 ft | 475 kts | 274° |
| 2026-04-10 02:08 | 57.94821 | -29.17512 | 35607 ft | 475 kts | 274° |
| 2026-04-10 02:09 | 57.95580 | -29.29869 | 35605 ft | 475 kts | 273° |
| 2026-04-10 02:09 | 57.96312 | -29.42147 | 35602 ft | 475 kts | 273° |
| 2026-04-10 02:10 | 57.97073 | -29.54518 | 35603 ft | 476 kts | 274° |
| 2026-04-10 02:10 | 57.97839 | -29.66901 | 35604 ft | 476 kts | 274° |
| 2026-04-10 02:11 | 57.98595 | -29.79278 | 35601 ft | 476 kts | 274° |
| 2026-04-10 02:11 | 57.99339 | -29.91683 | 35600 ft | 476 kts | 274° |
| 2026-04-10 02:12 | 57.99664 | -30.04097 | 35601 ft | 472 kts | 264° |
| 2026-04-10 02:12 | 57.98992 | -30.16400 | 35599 ft | 471 kts | 260° |
| 2026-04-10 02:13 | 57.98146 | -30.28670 | 35598 ft | 472 kts | 261° |
| 2026-04-10 02:13 | 57.97354 | -30.40966 | 35597 ft | 472 kts | 261° |
| 2026-04-10 02:14 | 57.96600 | -30.53199 | 35599 ft | 473 kts | 261° |
| 2026-04-10 02:14 | 57.95839 | -30.65505 | 35594 ft | 473 kts | 261° |
| 2026-04-10 02:15 | 57.95065 | -30.77808 | 35597 ft | 473 kts | 261° |
| 2026-04-10 02:15 | 57.94278 | -30.90089 | 35592 ft | 473 kts | 261° |
| 2026-04-10 02:16 | 57.93477 | -31.02393 | 35590 ft | 473 kts | 261° |
| 2026-04-10 02:16 | 57.92665 | -31.14681 | 35593 ft | 473 kts | 261° |
| 2026-04-10 02:17 | 57.91427 | -31.33060 | 35589 ft | 473 kts | 261° |
| 2026-04-10 02:17 | 57.90586 | -31.45323 | 35590 ft | 473 kts | 261° |
| 2026-04-10 02:18 | 57.89723 | -31.57583 | 35593 ft | 473 kts | 260° |
| 2026-04-10 02:18 | 57.88796 | -31.69815 | 35587 ft | 472 kts | 260° |
| 2026-04-10 02:19 | 57.87887 | -31.82040 | 35584 ft | 472 kts | 260° |
| 2026-04-10 02:19 | 57.86993 | -31.94272 | 35585 ft | 472 kts | 260° |
| 2026-04-10 02:20 | 57.86097 | -32.06478 | 35585 ft | 472 kts | 260° |
| 2026-04-10 02:20 | 57.85193 | -32.18615 | 35582 ft | 472 kts | 260° |
| 2026-04-10 02:21 | 57.84265 | -32.30896 | 35581 ft | 472 kts | 260° |
| 2026-04-10 02:21 | 57.83332 | -32.43074 | 35579 ft | 471 kts | 260° |
| 2026-04-10 02:22 | 57.82393 | -32.55186 | 35577 ft | 471 kts | 260° |
| 2026-04-10 02:22 | 57.81439 | -32.67337 | 35579 ft | 471 kts | 260° |
| 2026-04-10 02:23 | 57.80469 | -32.79501 | 35575 ft | 471 kts | 259° |
| 2026-04-10 02:23 | 57.79490 | -32.91654 | 35577 ft | 471 kts | 260° |
| 2026-04-10 02:24 | 57.78506 | -33.03717 | 35577 ft | 471 kts | 260° |
| 2026-04-10 02:24 | 57.77477 | -33.15826 | 35577 ft | 470 kts | 259° |
| 2026-04-10 02:25 | 57.76407 | -33.27917 | 35575 ft | 470 kts | 259° |
| 2026-04-10 02:25 | 57.75361 | -33.40026 | 35574 ft | 470 kts | 259° |
| 2026-04-10 02:26 | 57.74333 | -33.52016 | 35574 ft | 470 kts | 259° |
| 2026-04-10 02:26 | 57.73290 | -33.64089 | 35572 ft | 469 kts | 259° |
| 2026-04-10 02:27 | 57.72236 | -33.76129 | 35572 ft | 469 kts | 259° |
| 2026-04-10 02:27 | 57.71169 | -33.88175 | 35571 ft | 469 kts | 259° |
| 2026-04-10 02:28 | 57.70088 | -34.00231 | 35571 ft | 470 kts | 259° |
| 2026-04-10 02:28 | 57.68996 | -34.12282 | 35569 ft | 470 kts | 259° |
| 2026-04-10 02:29 | 57.67894 | -34.24316 | 35571 ft | 470 kts | 259° |
| 2026-04-10 02:29 | 57.66779 | -34.36361 | 35566 ft | 471 kts | 259° |
| 2026-04-10 02:30 | 57.65649 | -34.48422 | 35567 ft | 471 kts | 259° |
| 2026-04-10 02:30 | 57.64509 | -34.60465 | 35563 ft | 471 kts | 259° |
| 2026-04-10 02:31 | 57.63308 | -34.72495 | 35568 ft | 471 kts | 259° |
| 2026-04-10 02:31 | 57.62096 | -34.84535 | 35570 ft | 472 kts | 259° |
| 2026-04-10 02:32 | 57.60916 | -34.96480 | 35568 ft | 472 kts | 259° |
| 2026-04-10 02:32 | 57.59728 | -35.08522 | 35573 ft | 472 kts | 259° |
| 2026-04-10 02:33 | 57.58529 | -35.20561 | 35569 ft | 472 kts | 259° |
| 2026-04-10 02:33 | 57.57316 | -35.32613 | 35571 ft | 472 kts | 259° |
| 2026-04-10 02:34 | 57.56091 | -35.44653 | 35573 ft | 473 kts | 259° |
| 2026-04-10 02:34 | 57.54854 | -35.56685 | 35574 ft | 473 kts | 259° |
| 2026-04-10 02:35 | 57.53606 | -35.68709 | 35576 ft | 473 kts | 259° |
| 2026-04-10 02:35 | 57.52346 | -35.80727 | 35579 ft | 473 kts | 259° |
| 2026-04-10 02:36 | 57.51077 | -35.92714 | 35574 ft | 473 kts | 259° |
| 2026-04-10 02:36 | 57.49797 | -36.04690 | 35576 ft | 473 kts | 259° |
| 2026-04-10 02:37 | 57.48495 | -36.16684 | 35571 ft | 473 kts | 259° |
| 2026-04-10 02:37 | 57.47128 | -36.28654 | 35573 ft | 474 kts | 258° |
| 2026-04-10 02:38 | 57.45778 | -36.40617 | 35571 ft | 473 kts | 259° |
| 2026-04-10 02:38 | 57.44440 | -36.52618 | 35578 ft | 474 kts | 259° |
| 2026-04-10 02:39 | 57.43097 | -36.64618 | 35576 ft | 474 kts | 259° |
| 2026-04-10 02:39 | 57.41744 | -36.76612 | 35580 ft | 474 kts | 259° |
| 2026-04-10 02:40 | 57.40386 | -36.88518 | 35580 ft | 475 kts | 259° |
| 2026-04-10 02:40 | 57.39004 | -37.00505 | 35581 ft | 475 kts | 259° |
| 2026-04-10 02:41 | 57.37613 | -37.12476 | 35579 ft | 475 kts | 259° |
| 2026-04-10 02:41 | 57.36211 | -37.24440 | 35583 ft | 475 kts | 259° |
| 2026-04-10 02:42 | 57.34800 | -37.36391 | 35584 ft | 475 kts | 259° |
| 2026-04-10 02:42 | 57.33378 | -37.48310 | 35592 ft | 474 kts | 259° |
| 2026-04-10 02:43 | 57.31942 | -37.60241 | 35593 ft | 474 kts | 259° |
| 2026-04-10 02:43 | 57.30474 | -37.72071 | 35599 ft | 475 kts | 258° |
| 2026-04-10 02:44 | 57.28959 | -37.83965 | 35599 ft | 474 kts | 258° |
| 2026-04-10 02:44 | 57.27472 | -37.95853 | 35599 ft | 474 kts | 259° |
| 2026-04-10 02:45 | 57.25991 | -38.07737 | 35608 ft | 474 kts | 259° |
| 2026-04-10 02:45 | 57.24514 | -38.19526 | 35607 ft | 474 kts | 259° |
| 2026-04-10 02:46 | 57.23014 | -38.31379 | 35609 ft | 474 kts | 259° |
| 2026-04-10 02:46 | 57.21503 | -38.43217 | 35618 ft | 474 kts | 259° |
| 2026-04-10 02:47 | 57.20239 | -38.53038 | 35614 ft | 474 kts | 259° |
| 2026-04-10 02:47 | 57.18494 | -38.66517 | 35623 ft | 473 kts | 259° |
| 2026-04-10 02:48 | 57.17213 | -38.76313 | 35624 ft | 473 kts | 259° |
| 2026-04-10 02:48 | 57.15661 | -38.88103 | 35625 ft | 473 kts | 259° |
| 2026-04-10 02:49 | 57.14100 | -38.99866 | 35636 ft | 473 kts | 259° |
| 2026-04-10 02:49 | 57.12526 | -39.11626 | 35643 ft | 473 kts | 259° |
| 2026-04-10 02:50 | 57.10884 | -39.23351 | 35647 ft | 473 kts | 258° |
| 2026-04-10 02:50 | 57.09172 | -39.35026 | 35638 ft | 473 kts | 258° |
| 2026-04-10 02:51 | 57.07470 | -39.46701 | 35653 ft | 473 kts | 259° |
| 2026-04-10 02:51 | 57.05773 | -39.58388 | 35656 ft | 473 kts | 258° |
| 2026-04-10 02:52 | 57.04069 | -39.70041 | 35664 ft | 472 kts | 259° |
| 2026-04-10 02:52 | 57.02365 | -39.81618 | 35667 ft | 472 kts | 258° |
| 2026-04-10 02:53 | 57.00641 | -39.93244 | 35675 ft | 472 kts | 258° |
| 2026-04-10 02:53 | 56.98913 | -40.04852 | 35679 ft | 472 kts | 259° |
| 2026-04-10 02:54 | 56.97171 | -40.16453 | 35686 ft | 472 kts | 259° |
| 2026-04-10 02:54 | 56.95412 | -40.28058 | 35688 ft | 472 kts | 258° |
| 2026-04-10 02:55 | 56.93650 | -40.39613 | 35695 ft | 471 kts | 259° |
| 2026-04-10 02:55 | 56.91877 | -40.51176 | 35697 ft | 471 kts | 258° |
| 2026-04-10 02:56 | 56.90094 | -40.62706 | 35710 ft | 471 kts | 259° |
| 2026-04-10 02:56 | 56.88259 | -40.74219 | 35711 ft | 471 kts | 258° |
| 2026-04-10 02:57 | 56.86423 | -40.85633 | 35721 ft | 471 kts | 258° |
| 2026-04-10 02:57 | 56.84593 | -40.97132 | 35725 ft | 470 kts | 258° |
| 2026-04-10 02:58 | 56.82769 | -41.08622 | 35730 ft | 470 kts | 258° |
| 2026-04-10 02:58 | 56.80938 | -41.20075 | 35741 ft | 470 kts | 258° |
| 2026-04-10 02:59 | 56.79091 | -41.31545 | 35779 ft | 471 kts | 258° |
| 2026-04-10 02:59 | 56.78167 | -41.37257 | 36000 ft | 470 kts | 258° |
| 2026-04-10 03:00 | 56.76308 | -41.48679 | 36452 ft | 469 kts | 258° |
| 2026-04-10 03:00 | 56.75377 | -41.54373 | 36732 ft | 466 kts | 257° |
| 2026-04-10 03:00 | 56.74453 | -41.60003 | 37075 ft | 464 kts | 257° |
| 2026-04-10 03:00 | 56.73530 | -41.65618 | 37320 ft | 463 kts | 257° |
| 2026-04-10 03:01 | 56.72616 | -41.71161 | 37557 ft | 462 kts | 257° |
| 2026-04-10 03:01 | 56.71688 | -41.76766 | 37770 ft | 461 kts | 258° |
| 2026-04-10 03:01 | 56.70758 | -41.82361 | 37984 ft | 461 kts | 257° |
| 2026-04-10 03:01 | 56.69831 | -41.87926 | 38209 ft | 460 kts | 257° |
| 2026-04-10 03:02 | 56.68901 | -41.93495 | 38378 ft | 460 kts | 257° |
| 2026-04-10 03:02 | 56.67970 | -41.99047 | 38542 ft | 459 kts | 258° |
| 2026-04-10 03:02 | 56.67036 | -42.04596 | 38680 ft | 459 kts | 257° |
| 2026-04-10 03:02 | 56.66101 | -42.10135 | 38810 ft | 459 kts | 257° |
| 2026-04-10 03:03 | 56.65143 | -42.15664 | 38938 ft | 459 kts | 256° |
| 2026-04-10 03:03 | 56.64170 | -42.21217 | 39076 ft | 459 kts | 257° |
| 2026-04-10 03:03 | 56.63205 | -42.26741 | 39210 ft | 459 kts | 257° |
| 2026-04-10 03:03 | 56.62246 | -42.32265 | 39331 ft | 459 kts | 257° |
| 2026-04-10 03:04 | 56.61290 | -42.37798 | 39455 ft | 458 kts | 257° |
| 2026-04-10 03:04 | 56.60349 | -42.43240 | 39570 ft | 458 kts | 257° |
| 2026-04-10 03:04 | 56.59396 | -42.48752 | 39743 ft | 456 kts | 257° |
| 2026-04-10 03:05 | 56.57496 | -42.59728 | 39807 ft | 457 kts | 257° |
| 2026-04-10 03:05 | 56.55573 | -42.70766 | 39815 ft | 458 kts | 257° |
| 2026-04-10 03:06 | 56.53638 | -42.81794 | 39825 ft | 459 kts | 256° |
| 2026-04-10 03:06 | 56.51693 | -42.92818 | 39827 ft | 459 kts | 256° |
| 2026-04-10 03:07 | 56.49739 | -43.03835 | 39837 ft | 460 kts | 257° |
| 2026-04-10 03:07 | 56.47771 | -43.14847 | 39841 ft | 460 kts | 256° |
| 2026-04-10 03:08 | 56.45795 | -43.25840 | 39845 ft | 459 kts | 256° |
| 2026-04-10 03:08 | 56.42827 | -43.42238 | 39853 ft | 460 kts | 256° |
| 2026-04-10 03:09 | 56.40822 | -43.53246 | 39857 ft | 461 kts | 256° |
| 2026-04-10 03:09 | 56.38752 | -43.64232 | 39866 ft | 462 kts | 256° |
| 2026-04-10 03:10 | 56.36684 | -43.75207 | 39869 ft | 463 kts | 256° |
| 2026-04-10 03:10 | 56.34630 | -43.86220 | 39876 ft | 463 kts | 256° |
| 2026-04-10 03:11 | 56.32578 | -43.97210 | 39886 ft | 463 kts | 256° |
| 2026-04-10 03:11 | 56.30533 | -44.08113 | 39884 ft | 462 kts | 256° |
| 2026-04-10 03:12 | 56.28462 | -44.19086 | 39893 ft | 462 kts | 256° |
| 2026-04-10 03:12 | 56.26379 | -44.30045 | 39897 ft | 462 kts | 255° |
| 2026-04-10 03:13 | 56.24294 | -44.40964 | 39899 ft | 461 kts | 255° |
| 2026-04-10 03:13 | 56.22197 | -44.51877 | 39918 ft | 461 kts | 255° |
| 2026-04-10 03:14 | 56.20108 | -44.62684 | 39917 ft | 461 kts | 255° |
| 2026-04-10 03:14 | 56.17995 | -44.73559 | 39924 ft | 460 kts | 255° |
| 2026-04-10 03:15 | 56.15877 | -44.84398 | 39924 ft | 460 kts | 255° |
| 2026-04-10 03:15 | 56.13749 | -44.95220 | 39931 ft | 460 kts | 255° |
| 2026-04-10 03:16 | 56.11557 | -45.06034 | 39934 ft | 460 kts | 255° |
| 2026-04-10 03:16 | 56.09391 | -45.16735 | 39940 ft | 459 kts | 255° |
| 2026-04-10 03:17 | 56.07232 | -45.27497 | 39944 ft | 459 kts | 255° |
| 2026-04-10 03:17 | 56.05072 | -45.38250 | 39954 ft | 459 kts | 255° |
| 2026-04-10 03:18 | 56.02907 | -45.48975 | 39951 ft | 458 kts | 255° |
| 2026-04-10 03:18 | 56.00732 | -45.59683 | 39960 ft | 458 kts | 255° |
| 2026-04-10 03:19 | 55.98551 | -45.70369 | 39965 ft | 458 kts | 255° |
| 2026-04-10 03:19 | 55.96358 | -45.81054 | 39974 ft | 458 kts | 255° |
| 2026-04-10 03:20 | 55.94174 | -45.91638 | 39978 ft | 458 kts | 255° |
| 2026-04-10 03:20 | 55.91950 | -46.02355 | 39985 ft | 458 kts | 255° |
| 2026-04-10 03:21 | 55.89746 | -46.12921 | 39993 ft | 458 kts | 255° |
| 2026-04-10 03:21 | 55.87518 | -46.23547 | 39997 ft | 458 kts | 255° |
| 2026-04-10 03:22 | 55.85281 | -46.34158 | 39994 ft | 457 kts | 255° |
| 2026-04-10 03:22 | 55.82987 | -46.44732 | 40007 ft | 457 kts | 255° |
| 2026-04-10 03:23 | 55.80702 | -46.55269 | 40018 ft | 457 kts | 255° |
| 2026-04-10 03:23 | 55.78435 | -46.65813 | 40027 ft | 456 kts | 255° |
| 2026-04-10 03:24 | 55.76171 | -46.76331 | 40034 ft | 456 kts | 255° |
| 2026-04-10 03:24 | 55.73912 | -46.86782 | 40037 ft | 455 kts | 255° |
| 2026-04-10 03:25 | 55.71633 | -46.97263 | 40046 ft | 454 kts | 255° |
| 2026-04-10 03:25 | 55.69351 | -47.07706 | 40060 ft | 453 kts | 255° |
| 2026-04-10 03:26 | 55.67063 | -47.18123 | 40066 ft | 452 kts | 254° |
| 2026-04-10 03:26 | 55.64788 | -47.28428 | 40074 ft | 451 kts | 254° |
| 2026-04-10 03:27 | 55.62505 | -47.38721 | 40077 ft | 450 kts | 254° |
| 2026-04-10 03:27 | 55.60203 | -47.49047 | 40087 ft | 449 kts | 254° |
| 2026-04-10 03:28 | 55.57907 | -47.59298 | 40098 ft | 448 kts | 254° |
| 2026-04-10 03:28 | 55.55604 | -47.69526 | 40102 ft | 448 kts | 254° |
| 2026-04-10 03:29 | 55.53258 | -47.79716 | 40110 ft | 447 kts | 253° |
| 2026-04-10 03:29 | 55.50903 | -47.89868 | 40125 ft | 446 kts | 254° |
| 2026-04-10 03:30 | 55.48568 | -48.00024 | 40131 ft | 446 kts | 254° |
| 2026-04-10 03:30 | 55.46259 | -48.10083 | 40139 ft | 445 kts | 254° |
| 2026-04-10 03:31 | 55.43929 | -48.20192 | 40147 ft | 444 kts | 254° |
| 2026-04-10 03:31 | 55.41592 | -48.30277 | 40150 ft | 444 kts | 254° |
| 2026-04-10 03:32 | 55.39267 | -48.40266 | 40164 ft | 443 kts | 254° |
| 2026-04-10 03:32 | 55.36918 | -48.50305 | 40170 ft | 443 kts | 254° |
| 2026-04-10 03:33 | 55.34566 | -48.60312 | 40173 ft | 443 kts | 254° |
| 2026-04-10 03:33 | 55.32209 | -48.70296 | 40183 ft | 442 kts | 254° |
| 2026-04-10 03:34 | 55.29849 | -48.80246 | 40187 ft | 441 kts | 254° |
| 2026-04-10 03:34 | 55.27483 | -48.90173 | 40200 ft | 441 kts | 254° |
| 2026-04-10 03:35 | 55.25114 | -49.00065 | 40216 ft | 440 kts | 253° |
| 2026-04-10 03:35 | 55.23136 | -49.08275 | 40216 ft | 439 kts | 253° |
| 2026-04-10 03:36 | 55.20314 | -49.19695 | 40222 ft | 439 kts | 253° |
| 2026-04-10 03:36 | 55.17907 | -49.29498 | 40227 ft | 438 kts | 253° |
| 2026-04-10 03:37 | 55.15920 | -49.37629 | 40234 ft | 437 kts | 253° |
| 2026-04-10 03:37 | 55.13128 | -49.49039 | 40240 ft | 436 kts | 253° |
| 2026-04-10 03:38 | 55.11137 | -49.57138 | 40246 ft | 436 kts | 253° |
| 2026-04-10 03:38 | 55.08741 | -49.66845 | 40256 ft | 435 kts | 253° |
| 2026-04-10 03:39 | 55.06335 | -49.76546 | 40254 ft | 435 kts | 253° |
| 2026-04-10 03:39 | 55.03942 | -49.86152 | 40265 ft | 434 kts | 253° |
| 2026-04-10 03:40 | 55.01531 | -49.95792 | 40266 ft | 434 kts | 253° |
| 2026-04-10 03:40 | 54.99102 | -50.05455 | 40272 ft | 434 kts | 253° |
| 2026-04-10 03:41 | 54.96674 | -50.15078 | 40281 ft | 434 kts | 253° |
| 2026-04-10 03:41 | 54.94237 | -50.24692 | 40284 ft | 434 kts | 253° |
| 2026-04-10 03:42 | 54.91796 | -50.34280 | 40290 ft | 434 kts | 253° |
| 2026-04-10 03:42 | 54.89330 | -50.43859 | 40293 ft | 434 kts | 252° |
| 2026-04-10 03:43 | 54.86829 | -50.53384 | 40297 ft | 433 kts | 252° |
| 2026-04-10 03:43 | 54.84365 | -50.62846 | 40300 ft | 432 kts | 252° |
| 2026-04-10 03:44 | 54.81906 | -50.72356 | 40310 ft | 431 kts | 253° |
| 2026-04-10 03:44 | 54.79518 | -50.81880 | 40321 ft | 430 kts | 253° |
| 2026-04-10 03:45 | 54.77157 | -50.91405 | 40311 ft | 429 kts | 253° |
| 2026-04-10 03:45 | 54.74794 | -51.00912 | 40323 ft | 429 kts | 253° |
| 2026-04-10 03:46 | 54.72425 | -51.10386 | 40330 ft | 429 kts | 253° |
| 2026-04-10 03:46 | 54.70050 | -51.19839 | 40331 ft | 428 kts | 253° |
| 2026-04-10 03:47 | 54.67686 | -51.29210 | 40342 ft | 428 kts | 253° |
| 2026-04-10 03:47 | 54.65299 | -51.38633 | 40345 ft | 428 kts | 253° |
| 2026-04-10 03:48 | 54.62905 | -51.48039 | 40349 ft | 427 kts | 252° |
| 2026-04-10 03:48 | 54.60504 | -51.57436 | 40355 ft | 427 kts | 252° |
| 2026-04-10 03:49 | 54.58101 | -51.66800 | 40356 ft | 426 kts | 252° |
| 2026-04-10 03:49 | 54.55696 | -51.76136 | 40364 ft | 426 kts | 252° |
| 2026-04-10 03:50 | 54.53284 | -51.85455 | 40368 ft | 426 kts | 252° |
| 2026-04-10 03:50 | 54.50865 | -51.94763 | 40376 ft | 425 kts | 252° |
| 2026-04-10 03:51 | 54.48451 | -52.03984 | 40377 ft | 425 kts | 252° |
| 2026-04-10 03:51 | 54.45975 | -52.13224 | 40378 ft | 425 kts | 251° |
| 2026-04-10 03:52 | 54.43515 | -52.22466 | 40380 ft | 425 kts | 252° |
| 2026-04-10 03:52 | 54.41065 | -52.31719 | 40387 ft | 425 kts | 252° |
| 2026-04-10 03:53 | 54.38613 | -52.40961 | 40393 ft | 425 kts | 251° |
| 2026-04-10 03:53 | 54.36153 | -52.50202 | 40396 ft | 425 kts | 251° |
| 2026-04-10 03:54 | 54.33704 | -52.59363 | 40396 ft | 425 kts | 251° |
| 2026-04-10 03:54 | 54.31230 | -52.68576 | 40395 ft | 425 kts | 251° |
| 2026-04-10 03:55 | 54.28751 | -52.77772 | 40401 ft | 425 kts | 251° |
| 2026-04-10 03:55 | 54.26263 | -52.86964 | 40404 ft | 426 kts | 251° |
| 2026-04-10 03:56 | 54.23770 | -52.96139 | 40406 ft | 426 kts | 251° |
| 2026-04-10 03:56 | 54.21264 | -53.05324 | 40409 ft | 426 kts | 251° |
| 2026-04-10 03:57 | 54.18768 | -53.14433 | 40405 ft | 426 kts | 251° |
| 2026-04-10 03:57 | 54.16251 | -53.23587 | 40411 ft | 426 kts | 251° |
| 2026-04-10 03:58 | 54.13718 | -53.32734 | 40409 ft | 426 kts | 250° |
| 2026-04-10 03:58 | 54.11138 | -53.41849 | 40414 ft | 426 kts | 250° |
| 2026-04-10 03:59 | 54.08573 | -53.50956 | 40412 ft | 426 kts | 250° |
| 2026-04-10 03:59 | 54.06023 | -53.60057 | 40415 ft | 426 kts | 250° |
| 2026-04-10 04:00 | 54.03465 | -53.69174 | 40410 ft | 426 kts | 250° |
| 2026-04-10 04:00 | 54.00907 | -53.78258 | 40408 ft | 426 kts | 250° |
| 2026-04-10 04:01 | 53.98338 | -53.87347 | 40404 ft | 426 kts | 250° |
| 2026-04-10 04:01 | 53.95771 | -53.96395 | 40411 ft | 425 kts | 250° |
| 2026-04-10 04:02 | 53.93195 | -54.05432 | 40448 ft | 425 kts | 250° |
| 2026-04-10 04:02 | 53.90614 | -54.14452 | 40412 ft | 425 kts | 250° |
| 2026-04-10 04:03 | 53.88041 | -54.23413 | 40427 ft | 425 kts | 249° |
| 2026-04-10 04:03 | 53.85447 | -54.32410 | 40412 ft | 425 kts | 249° |
| 2026-04-10 04:04 | 53.82849 | -54.41388 | 40425 ft | 424 kts | 249° |
| 2026-04-10 04:04 | 53.80247 | -54.50347 | 40405 ft | 424 kts | 249° |
| 2026-04-10 04:05 | 53.77634 | -54.59291 | 40425 ft | 424 kts | 249° |
| 2026-04-10 04:05 | 53.74977 | -54.68187 | 40406 ft | 424 kts | 249° |
| 2026-04-10 04:06 | 53.72334 | -54.77077 | 40423 ft | 423 kts | 249° |
| 2026-04-10 04:06 | 53.69705 | -54.85965 | 40409 ft | 423 kts | 249° |
| 2026-04-10 04:07 | 53.67082 | -54.94826 | 40421 ft | 422 kts | 248° |
| 2026-04-10 04:07 | 53.64455 | -55.03670 | 40406 ft | 422 kts | 248° |
| 2026-04-10 04:08 | 53.61820 | -55.12503 | 40419 ft | 421 kts | 248° |
| 2026-04-10 04:08 | 53.59182 | -55.21315 | 40400 ft | 421 kts | 248° |
| 2026-04-10 04:09 | 53.56554 | -55.30062 | 40413 ft | 421 kts | 248° |
| 2026-04-10 04:09 | 53.53905 | -55.38848 | 40399 ft | 420 kts | 248° |
| 2026-04-10 04:10 | 53.51254 | -55.47602 | 40410 ft | 420 kts | 248° |
| 2026-04-10 04:10 | 53.48602 | -55.56332 | 40395 ft | 419 kts | 247° |
| 2026-04-10 04:11 | 53.45946 | -55.65042 | 40408 ft | 419 kts | 247° |
| 2026-04-10 04:11 | 53.43287 | -55.73730 | 40392 ft | 418 kts | 247° |
| 2026-04-10 04:12 | 53.40624 | -55.82400 | 40403 ft | 418 kts | 247° |
| 2026-04-10 04:12 | 53.37924 | -55.91008 | 40388 ft | 417 kts | 246° |
| 2026-04-10 04:13 | 53.35224 | -55.99618 | 40405 ft | 417 kts | 246° |
| 2026-04-10 04:13 | 53.32556 | -56.08177 | 40391 ft | 417 kts | 246° |
| 2026-04-10 04:14 | 53.29873 | -56.16784 | 40413 ft | 417 kts | 246° |
| 2026-04-10 04:14 | 53.27186 | -56.25378 | 40398 ft | 417 kts | 246° |
| 2026-04-10 04:15 | 53.24494 | -56.33956 | 40419 ft | 417 kts | 246° |
| 2026-04-10 04:15 | 53.21791 | -56.42539 | 40406 ft | 417 kts | 246° |
| 2026-04-10 04:16 | 53.17725 | -56.55302 | 40406 ft | 418 kts | 245° |
| 2026-04-10 04:17 | 53.14770 | -56.63673 | 40409 ft | 419 kts | 243° |
| 2026-04-10 04:17 | 53.11755 | -56.71993 | 40411 ft | 420 kts | 243° |
| 2026-04-10 04:18 | 53.08744 | -56.80322 | 40407 ft | 420 kts | 243° |
| 2026-04-10 04:18 | 53.05737 | -56.88649 | 40414 ft | 420 kts | 243° |
| 2026-04-10 04:19 | 53.02727 | -56.96969 | 40411 ft | 420 kts | 243° |
| 2026-04-10 04:19 | 52.99710 | -57.05281 | 40416 ft | 420 kts | 243° |
| 2026-04-10 04:20 | 52.96684 | -57.13588 | 40409 ft | 420 kts | 243° |
| 2026-04-10 04:20 | 52.93650 | -57.21890 | 40412 ft | 421 kts | 243° |
| 2026-04-10 04:21 | 52.91126 | -57.28775 | 40404 ft | 421 kts | 243° |
| 2026-04-10 04:21 | 52.88084 | -57.37051 | 40398 ft | 421 kts | 243° |
| 2026-04-10 04:22 | 52.84518 | -57.46715 | 40407 ft | 421 kts | 243° |
| 2026-04-10 04:22 | 52.81481 | -57.54915 | 40401 ft | 420 kts | 243° |
| 2026-04-10 04:23 | 52.78914 | -57.61827 | 40398 ft | 420 kts | 242° |
| 2026-04-10 04:23 | 52.75854 | -57.70040 | 40403 ft | 420 kts | 242° |
| 2026-04-10 04:24 | 52.72777 | -57.78172 | 40393 ft | 420 kts | 242° |
| 2026-04-10 04:24 | 52.69678 | -57.86327 | 40402 ft | 419 kts | 242° |
| 2026-04-10 04:25 | 52.66595 | -57.94489 | 40394 ft | 419 kts | 242° |
| 2026-04-10 04:25 | 52.63513 | -58.02650 | 40397 ft | 419 kts | 242° |
| 2026-04-10 04:26 | 52.60434 | -58.10783 | 40390 ft | 418 kts | 242° |
| 2026-04-10 04:26 | 52.57351 | -58.18902 | 40398 ft | 418 kts | 242° |
| 2026-04-10 04:27 | 52.54282 | -58.26956 | 40388 ft | 418 kts | 242° |
| 2026-04-10 04:27 | 52.51190 | -58.35043 | 40391 ft | 418 kts | 242° |
| 2026-04-10 04:28 | 52.48095 | -58.43112 | 40381 ft | 418 kts | 242° |
| 2026-04-10 04:28 | 52.44994 | -58.51173 | 40389 ft | 417 kts | 242° |
| 2026-04-10 04:29 | 52.41889 | -58.59218 | 40380 ft | 417 kts | 242° |
| 2026-04-10 04:29 | 52.38781 | -58.67244 | 40375 ft | 417 kts | 242° |
| 2026-04-10 04:30 | 52.35668 | -58.75261 | 40382 ft | 417 kts | 242° |
| 2026-04-10 04:30 | 52.32555 | -58.83249 | 40368 ft | 417 kts | 241° |
| 2026-04-10 04:31 | 52.29414 | -58.91231 | 40358 ft | 417 kts | 241° |
| 2026-04-10 04:31 | 52.26248 | -58.99184 | 40363 ft | 417 kts | 241° |
| 2026-04-10 04:32 | 52.23120 | -59.07088 | 40358 ft | 418 kts | 241° |
| 2026-04-10 04:32 | 52.19971 | -59.15058 | 40361 ft | 418 kts | 241° |
| 2026-04-10 04:33 | 52.16819 | -59.23023 | 40362 ft | 418 kts | 241° |
| 2026-04-10 04:33 | 52.13660 | -59.30981 | 40367 ft | 418 kts | 241° |
| 2026-04-10 04:34 | 52.10492 | -59.38935 | 40359 ft | 418 kts | 241° |
| 2026-04-10 04:34 | 52.07322 | -59.46870 | 40362 ft | 418 kts | 241° |
| 2026-04-10 04:35 | 52.04165 | -59.54747 | 40356 ft | 419 kts | 241° |
| 2026-04-10 04:35 | 52.00959 | -59.62722 | 40360 ft | 419 kts | 241° |
| 2026-04-10 04:36 | 51.97769 | -59.70632 | 40350 ft | 419 kts | 241° |
| 2026-04-10 04:36 | 51.94593 | -59.78483 | 40355 ft | 419 kts | 241° |
| 2026-04-10 04:37 | 51.91389 | -59.86380 | 40343 ft | 419 kts | 241° |
| 2026-04-10 04:37 | 51.88182 | -59.94258 | 40344 ft | 419 kts | 241° |
| 2026-04-10 04:38 | 51.84962 | -60.02127 | 40333 ft | 419 kts | 240° |
| 2026-04-10 04:38 | 51.81709 | -60.09950 | 40336 ft | 419 kts | 240° |
| 2026-04-10 04:39 | 51.78456 | -60.17803 | 40324 ft | 419 kts | 240° |
| 2026-04-10 04:39 | 51.75242 | -60.25589 | 40318 ft | 419 kts | 240° |
| 2026-04-10 04:40 | 51.72006 | -60.33420 | 40320 ft | 419 kts | 240° |
| 2026-04-10 04:40 | 51.68760 | -60.41251 | 40315 ft | 420 kts | 240° |
| 2026-04-10 04:41 | 51.65510 | -60.49067 | 40298 ft | 420 kts | 240° |
| 2026-04-10 04:41 | 51.62257 | -60.56867 | 40302 ft | 420 kts | 240° |
| 2026-04-10 04:42 | 51.58988 | -60.64680 | 40296 ft | 420 kts | 240° |
| 2026-04-10 04:42 | 51.55719 | -60.72471 | 40300 ft | 420 kts | 240° |
| 2026-04-10 04:43 | 51.52464 | -60.80206 | 40293 ft | 421 kts | 240° |
| 2026-04-10 04:43 | 51.49156 | -60.88039 | 40298 ft | 421 kts | 240° |
| 2026-04-10 04:44 | 51.45872 | -60.95796 | 40294 ft | 421 kts | 240° |
| 2026-04-10 04:44 | 51.42596 | -61.03510 | 40302 ft | 421 kts | 240° |
| 2026-04-10 04:45 | 51.39293 | -61.11261 | 40296 ft | 421 kts | 240° |
| 2026-04-10 04:45 | 51.35952 | -61.18977 | 40302 ft | 422 kts | 240° |
| 2026-04-10 04:46 | 51.32612 | -61.26694 | 40296 ft | 422 kts | 240° |
| 2026-04-10 04:46 | 51.29275 | -61.34435 | 40301 ft | 422 kts | 240° |
| 2026-04-10 04:47 | 51.25944 | -61.42160 | 40292 ft | 422 kts | 240° |
| 2026-04-10 04:47 | 51.22604 | -61.49885 | 40294 ft | 423 kts | 240° |
| 2026-04-10 04:48 | 51.19261 | -61.57594 | 40294 ft | 423 kts | 240° |
| 2026-04-10 04:48 | 51.15910 | -61.65297 | 40287 ft | 423 kts | 240° |
| 2026-04-10 04:49 | 51.12554 | -61.72989 | 40280 ft | 423 kts | 240° |
| 2026-04-10 04:49 | 51.09187 | -61.80685 | 40282 ft | 423 kts | 240° |
| 2026-04-10 04:50 | 51.05823 | -61.88349 | 40274 ft | 422 kts | 240° |
| 2026-04-10 04:50 | 51.02473 | -61.95961 | 40279 ft | 422 kts | 240° |
| 2026-04-10 04:51 | 50.99100 | -62.03610 | 40274 ft | 421 kts | 242° |
| 2026-04-10 04:51 | 50.96390 | -62.11728 | 40272 ft | 415 kts | 251° |
| 2026-04-10 04:52 | 50.94199 | -62.20175 | 40267 ft | 414 kts | 252° |
| 2026-04-10 04:52 | 50.92036 | -62.28631 | 40266 ft | 414 kts | 252° |
| 2026-04-10 04:53 | 50.89833 | -62.37059 | 40261 ft | 414 kts | 251° |
| 2026-04-10 04:53 | 50.87607 | -62.45475 | 40255 ft | 414 kts | 251° |
| 2026-04-10 04:54 | 50.85369 | -62.53885 | 40255 ft | 414 kts | 251° |
| 2026-04-10 04:54 | 50.83125 | -62.62288 | 40249 ft | 414 kts | 251° |
| 2026-04-10 04:55 | 50.80875 | -62.70682 | 40249 ft | 415 kts | 251° |
| 2026-04-10 04:55 | 50.78617 | -62.79075 | 40239 ft | 415 kts | 251° |
| 2026-04-10 04:56 | 50.76367 | -62.87412 | 40237 ft | 415 kts | 251° |
| 2026-04-10 04:56 | 50.74093 | -62.95806 | 40239 ft | 415 kts | 252° |
| 2026-04-10 04:57 | 50.71813 | -63.04188 | 40229 ft | 415 kts | 251° |
| 2026-04-10 04:57 | 50.69531 | -63.12551 | 40230 ft | 415 kts | 252° |
| 2026-04-10 04:58 | 50.67238 | -63.20921 | 40223 ft | 415 kts | 252° |
| 2026-04-10 04:58 | 50.64925 | -63.29277 | 40219 ft | 416 kts | 251° |
| 2026-04-10 04:59 | 50.62604 | -63.37539 | 39724 ft | 410 kts | 247° |
| 2026-04-10 04:59 | 50.61457 | -63.41630 | 40053 ft | 406 kts | 247° |
| 2026-04-10 04:59 | 50.60322 | -63.45699 | 40171 ft | 407 kts | 247° |
| 2026-04-10 05:00 | 50.58037 | -63.53909 | 40195 ft | 410 kts | 247° |
| 2026-04-10 05:00 | 50.55743 | -63.62137 | 40197 ft | 411 kts | 247° |
| 2026-04-10 05:01 | 50.53439 | -63.70375 | 40189 ft | 411 kts | 247° |
| 2026-04-10 05:01 | 50.51128 | -63.78606 | 40189 ft | 411 kts | 246° |
| 2026-04-10 05:02 | 50.48817 | -63.86809 | 40191 ft | 410 kts | 246° |
| 2026-04-10 05:02 | 50.46517 | -63.94945 | 40183 ft | 410 kts | 246° |
| 2026-04-10 05:03 | 50.44189 | -64.03151 | 40182 ft | 411 kts | 246° |
| 2026-04-10 05:03 | 50.41858 | -64.11338 | 40182 ft | 412 kts | 246° |
| 2026-04-10 05:04 | 50.39514 | -64.19545 | 40178 ft | 412 kts | 246° |
| 2026-04-10 05:04 | 50.37164 | -64.27741 | 40174 ft | 413 kts | 246° |
| 2026-04-10 05:05 | 50.34820 | -64.35890 | 40171 ft | 413 kts | 246° |
| 2026-04-10 05:05 | 50.32456 | -64.44081 | 40166 ft | 413 kts | 246° |
| 2026-04-10 05:06 | 50.30052 | -64.52246 | 40157 ft | 413 kts | 246° |
| 2026-04-10 05:06 | 50.27640 | -64.60430 | 40148 ft | 414 kts | 246° |
| 2026-04-10 05:07 | 50.25242 | -64.68615 | 40143 ft | 414 kts | 246° |
| 2026-04-10 05:07 | 50.23251 | -64.75416 | 40139 ft | 414 kts | 246° |
| 2026-04-10 05:08 | 50.20849 | -64.83605 | 40128 ft | 414 kts | 246° |
| 2026-04-10 05:08 | 50.18053 | -64.93097 | 40118 ft | 414 kts | 246° |
| 2026-04-10 05:09 | 50.16028 | -64.99948 | 40112 ft | 415 kts | 246° |
| 2026-04-10 05:09 | 50.12409 | -65.12147 | 40102 ft | 415 kts | 246° |
| 2026-04-10 05:10 | 50.09982 | -65.20293 | 40101 ft | 415 kts | 246° |
| 2026-04-10 05:10 | 50.07543 | -65.28449 | 40095 ft | 415 kts | 245° |
| 2026-04-10 05:11 | 50.05102 | -65.36586 | 40094 ft | 415 kts | 245° |
| 2026-04-10 05:11 | 50.02649 | -65.44735 | 40086 ft | 415 kts | 245° |
| 2026-04-10 05:12 | 50.00211 | -65.52808 | 40085 ft | 415 kts | 245° |
| 2026-04-10 05:12 | 49.97752 | -65.60926 | 40083 ft | 415 kts | 245° |
| 2026-04-10 05:13 | 49.95254 | -65.69030 | 40080 ft | 416 kts | 245° |
| 2026-04-10 05:13 | 49.92748 | -65.77127 | 40077 ft | 416 kts | 245° |
| 2026-04-10 05:14 | 49.90253 | -65.85240 | 40076 ft | 416 kts | 245° |
| 2026-04-10 05:14 | 49.87779 | -65.93292 | 40074 ft | 416 kts | 245° |
| 2026-04-10 05:15 | 49.85282 | -66.01399 | 40071 ft | 416 kts | 245° |
| 2026-04-10 05:15 | 49.82776 | -66.09509 | 40066 ft | 417 kts | 245° |
| 2026-04-10 05:16 | 49.80263 | -66.17611 | 40071 ft | 417 kts | 245° |
| 2026-04-10 05:16 | 49.77738 | -66.25725 | 40073 ft | 418 kts | 245° |
| 2026-04-10 05:17 | 49.75228 | -66.33767 | 40073 ft | 418 kts | 245° |
| 2026-04-10 05:17 | 49.72697 | -66.41849 | 40074 ft | 418 kts | 245° |
| 2026-04-10 05:18 | 49.70155 | -66.49937 | 40077 ft | 418 kts | 245° |
| 2026-04-10 05:18 | 49.67608 | -66.58017 | 40078 ft | 418 kts | 245° |
| 2026-04-10 05:19 | 49.65056 | -66.66088 | 40079 ft | 418 kts | 245° |
| 2026-04-10 05:19 | 49.62512 | -66.74104 | 40080 ft | 418 kts | 245° |
| 2026-04-10 05:20 | 49.59934 | -66.82147 | 40082 ft | 418 kts | 245° |
| 2026-04-10 05:20 | 49.57333 | -66.90158 | 40082 ft | 417 kts | 245° |
| 2026-04-10 05:21 | 49.54748 | -66.98168 | 40086 ft | 417 kts | 245° |
| 2026-04-10 05:21 | 49.52190 | -67.06117 | 40078 ft | 417 kts | 245° |
| 2026-04-10 05:22 | 49.49610 | -67.14116 | 40081 ft | 417 kts | 245° |
| 2026-04-10 05:22 | 49.47028 | -67.22100 | 40084 ft | 417 kts | 245° |
| 2026-04-10 05:23 | 49.44436 | -67.30089 | 40085 ft | 417 kts | 245° |
| 2026-04-10 05:23 | 49.41842 | -67.38056 | 40087 ft | 417 kts | 245° |
| 2026-04-10 05:24 | 49.39242 | -67.46016 | 40084 ft | 417 kts | 245° |
| 2026-04-10 05:24 | 49.36651 | -67.53925 | 40090 ft | 417 kts | 245° |
| 2026-04-10 05:25 | 49.34039 | -67.61873 | 40090 ft | 417 kts | 245° |
| 2026-04-10 05:25 | 49.31422 | -67.69812 | 40094 ft | 415 kts | 245° |
| 2026-04-10 05:26 | 49.28699 | -67.77579 | 40089 ft | 413 kts | 243° |
| 2026-04-10 05:26 | 49.25895 | -67.85248 | 40085 ft | 412 kts | 243° |
| 2026-04-10 05:27 | 49.23111 | -67.92889 | 40075 ft | 412 kts | 243° |
| 2026-04-10 05:27 | 49.20340 | -68.00559 | 40072 ft | 412 kts | 243° |
| 2026-04-10 05:28 | 49.17564 | -68.08216 | 40065 ft | 412 kts | 243° |
| 2026-04-10 05:28 | 49.14781 | -68.15862 | 40075 ft | 411 kts | 243° |
| 2026-04-10 05:29 | 49.11993 | -68.23494 | 40068 ft | 411 kts | 243° |
| 2026-04-10 05:30 | 49.03696 | -68.46071 | 40078 ft | 411 kts | 243° |
| 2026-04-10 05:31 | 49.00892 | -68.53653 | 40079 ft | 411 kts | 243° |
| 2026-04-10 05:31 | 48.98082 | -68.61235 | 40081 ft | 411 kts | 243° |
| 2026-04-10 05:32 | 48.95269 | -68.68801 | 40081 ft | 411 kts | 243° |
| 2026-04-10 05:32 | 48.92453 | -68.76352 | 40085 ft | 411 kts | 242° |
| 2026-04-10 05:33 | 48.89617 | -68.83910 | 40080 ft | 411 kts | 242° |
| 2026-04-10 05:33 | 48.86752 | -68.91432 | 40085 ft | 411 kts | 242° |
| 2026-04-10 05:34 | 48.83903 | -68.98948 | 40091 ft | 411 kts | 242° |
| 2026-04-10 05:34 | 48.81076 | -69.06428 | 40086 ft | 411 kts | 242° |
| 2026-04-10 05:35 | 48.78232 | -69.13946 | 40083 ft | 411 kts | 242° |
| 2026-04-10 05:35 | 48.75384 | -69.21457 | 40086 ft | 411 kts | 242° |
| 2026-04-10 05:36 | 48.72534 | -69.28948 | 40081 ft | 411 kts | 242° |
| 2026-04-10 05:36 | 48.69668 | -69.36460 | 40083 ft | 411 kts | 242° |
| 2026-04-10 05:37 | 48.66799 | -69.43957 | 40085 ft | 412 kts | 242° |
| 2026-04-10 05:37 | 48.63921 | -69.51456 | 40079 ft | 412 kts | 242° |
| 2026-04-10 05:38 | 48.61032 | -69.58965 | 40083 ft | 413 kts | 242° |
| 2026-04-10 05:38 | 48.58156 | -69.66418 | 40082 ft | 413 kts | 242° |
| 2026-04-10 05:39 | 48.55253 | -69.73918 | 40083 ft | 413 kts | 242° |
| 2026-04-10 05:39 | 48.52348 | -69.81404 | 40080 ft | 414 kts | 242° |
| 2026-04-10 05:40 | 48.49432 | -69.88897 | 40081 ft | 414 kts | 241° |
| 2026-04-10 05:40 | 48.46480 | -69.96381 | 40078 ft | 415 kts | 241° |
| 2026-04-10 05:41 | 48.43518 | -70.03859 | 40079 ft | 416 kts | 241° |
| 2026-04-10 05:41 | 48.40558 | -70.11371 | 40083 ft | 417 kts | 241° |
| 2026-04-10 05:42 | 48.37594 | -70.18894 | 40083 ft | 418 kts | 242° |
| 2026-04-10 05:42 | 48.34647 | -70.26363 | 40086 ft | 419 kts | 242° |
| 2026-04-10 05:43 | 48.31666 | -70.33893 | 40091 ft | 419 kts | 242° |
| 2026-04-10 05:43 | 48.28674 | -70.41430 | 40089 ft | 419 kts | 242° |
| 2026-04-10 05:44 | 48.25682 | -70.48947 | 40098 ft | 420 kts | 242° |
| 2026-04-10 05:44 | 48.22682 | -70.56460 | 40107 ft | 419 kts | 241° |
| 2026-04-10 05:45 | 48.19679 | -70.63963 | 40109 ft | 419 kts | 241° |
| 2026-04-10 05:45 | 48.16674 | -70.71448 | 40114 ft | 419 kts | 241° |
| 2026-04-10 05:46 | 48.13685 | -70.78872 | 40112 ft | 419 kts | 242° |
| 2026-04-10 05:46 | 48.10675 | -70.86328 | 40117 ft | 419 kts | 241° |
| 2026-04-10 05:47 | 48.07661 | -70.93772 | 40114 ft | 418 kts | 241° |
| 2026-04-10 05:47 | 48.04626 | -71.01206 | 40109 ft | 419 kts | 241° |
| 2026-04-10 05:48 | 48.01575 | -71.08602 | 40101 ft | 418 kts | 241° |
| 2026-04-10 05:48 | 47.98535 | -71.16008 | 40095 ft | 418 kts | 241° |
| 2026-04-10 05:49 | 47.95501 | -71.23410 | 40093 ft | 418 kts | 241° |
| 2026-04-10 05:49 | 47.92464 | -71.30811 | 40093 ft | 418 kts | 241° |
| 2026-04-10 05:50 | 47.89428 | -71.38189 | 40094 ft | 418 kts | 241° |
| 2026-04-10 05:50 | 47.86386 | -71.45559 | 40110 ft | 417 kts | 241° |
| 2026-04-10 05:51 | 47.83343 | -71.52912 | 40095 ft | 417 kts | 241° |
| 2026-04-10 05:51 | 47.80323 | -71.60190 | 40095 ft | 416 kts | 241° |
| 2026-04-10 05:52 | 47.77276 | -71.67512 | 40113 ft | 415 kts | 241° |
| 2026-04-10 05:52 | 47.74233 | -71.74806 | 40111 ft | 414 kts | 241° |
| 2026-04-10 05:53 | 47.71192 | -71.82076 | 40110 ft | 414 kts | 241° |
| 2026-04-10 05:53 | 47.68153 | -71.89319 | 40109 ft | 413 kts | 241° |
| 2026-04-10 05:54 | 47.65113 | -71.96548 | 40114 ft | 412 kts | 241° |
| 2026-04-10 05:54 | 47.62070 | -72.03758 | 40121 ft | 412 kts | 241° |
| 2026-04-10 05:55 | 47.58999 | -72.10924 | 40120 ft | 411 kts | 241° |
| 2026-04-10 05:55 | 47.55956 | -72.18043 | 40123 ft | 411 kts | 241° |
| 2026-04-10 05:56 | 47.52902 | -72.25212 | 40125 ft | 412 kts | 241° |
| 2026-04-10 05:56 | 47.49851 | -72.32369 | 40129 ft | 412 kts | 241° |
| 2026-04-10 05:57 | 47.46789 | -72.39534 | 40133 ft | 411 kts | 241° |
| 2026-04-10 05:57 | 47.43727 | -72.46684 | 40140 ft | 412 kts | 241° |
| 2026-04-10 05:58 | 47.40656 | -72.53832 | 40140 ft | 412 kts | 241° |
| 2026-04-10 05:58 | 47.37608 | -72.60911 | 40141 ft | 412 kts | 241° |
| 2026-04-10 05:59 | 47.35021 | -72.66903 | 40148 ft | 412 kts | 241° |
| 2026-04-10 05:59 | 47.31962 | -72.73972 | 40151 ft | 412 kts | 241° |
| 2026-04-10 06:00 | 47.28872 | -72.81093 | 40148 ft | 412 kts | 241° |
| 2026-04-10 06:00 | 47.25781 | -72.88200 | 40155 ft | 412 kts | 241° |
| 2026-04-10 06:01 | 47.22680 | -72.95309 | 40151 ft | 412 kts | 240° |
| 2026-04-10 06:01 | 47.19591 | -73.02375 | 40151 ft | 412 kts | 240° |
| 2026-04-10 06:02 | 47.16469 | -73.09465 | 40157 ft | 413 kts | 240° |
| 2026-04-10 06:02 | 47.13345 | -73.16482 | 40167 ft | 413 kts | 240° |
| 2026-04-10 06:03 | 47.10212 | -73.23549 | 40162 ft | 413 kts | 240° |
| 2026-04-10 06:03 | 47.07080 | -73.30629 | 40170 ft | 414 kts | 240° |
| 2026-04-10 06:04 | 47.03942 | -73.37714 | 40164 ft | 413 kts | 240° |
| 2026-04-10 06:04 | 47.00801 | -73.44790 | 40178 ft | 414 kts | 240° |
| 2026-04-10 06:05 | 46.97675 | -73.51811 | 40180 ft | 414 kts | 240° |
| 2026-04-10 06:05 | 46.94524 | -73.58870 | 40174 ft | 414 kts | 240° |
| 2026-04-10 06:06 | 46.89782 | -73.69461 | 40178 ft | 415 kts | 240° |
| 2026-04-10 06:07 | 46.86615 | -73.76511 | 40180 ft | 415 kts | 240° |
| 2026-04-10 06:07 | 46.83440 | -73.83559 | 40181 ft | 415 kts | 240° |
| 2026-04-10 06:08 | 46.80260 | -73.90601 | 40183 ft | 415 kts | 240° |
| 2026-04-10 06:08 | 46.77080 | -73.97628 | 40180 ft | 415 kts | 240° |
| 2026-04-10 06:09 | 46.73884 | -74.04669 | 40182 ft | 416 kts | 240° |
| 2026-04-10 06:09 | 46.70675 | -74.11689 | 40180 ft | 416 kts | 240° |
| 2026-04-10 06:10 | 46.67446 | -74.18681 | 40181 ft | 417 kts | 240° |
| 2026-04-10 06:10 | 46.64240 | -74.25655 | 40181 ft | 417 kts | 240° |
| 2026-04-10 06:11 | 46.61022 | -74.32669 | 40182 ft | 417 kts | 240° |
| 2026-04-10 06:11 | 46.57794 | -74.39693 | 40192 ft | 418 kts | 240° |
| 2026-04-10 06:12 | 46.54557 | -74.46717 | 40183 ft | 418 kts | 240° |
| 2026-04-10 06:12 | 46.51320 | -74.53725 | 40188 ft | 418 kts | 240° |
| 2026-04-10 06:13 | 46.48074 | -74.60734 | 40188 ft | 419 kts | 240° |
| 2026-04-10 06:13 | 46.44831 | -74.67719 | 40189 ft | 419 kts | 240° |
| 2026-04-10 06:14 | 46.41574 | -74.74717 | 40188 ft | 419 kts | 240° |
| 2026-04-10 06:14 | 46.38311 | -74.81709 | 40194 ft | 419 kts | 239° |
| 2026-04-10 06:15 | 46.35039 | -74.88705 | 40191 ft | 419 kts | 239° |
| 2026-04-10 06:15 | 46.31762 | -74.95693 | 40190 ft | 419 kts | 239° |
| 2026-04-10 06:16 | 46.28476 | -75.02683 | 40194 ft | 419 kts | 239° |
| 2026-04-10 06:16 | 46.25189 | -75.09648 | 40198 ft | 420 kts | 239° |
| 2026-04-10 06:17 | 46.21892 | -75.16541 | 40196 ft | 420 kts | 239° |
| 2026-04-10 06:17 | 46.18582 | -75.23480 | 40199 ft | 420 kts | 239° |
| 2026-04-10 06:18 | 46.15278 | -75.30426 | 40193 ft | 420 kts | 239° |
| 2026-04-10 06:18 | 46.11974 | -75.37364 | 40197 ft | 420 kts | 239° |
| 2026-04-10 06:19 | 46.08663 | -75.44304 | 40198 ft | 420 kts | 239° |
| 2026-04-10 06:19 | 46.05345 | -75.51240 | 40201 ft | 420 kts | 239° |
| 2026-04-10 06:20 | 46.02026 | -75.58163 | 40198 ft | 420 kts | 239° |
| 2026-04-10 06:20 | 45.98705 | -75.65070 | 40197 ft | 420 kts | 239° |
| 2026-04-10 06:21 | 45.95377 | -75.71976 | 40204 ft | 420 kts | 239° |
| 2026-04-10 06:21 | 45.92044 | -75.78875 | 40207 ft | 420 kts | 239° |
| 2026-04-10 06:22 | 45.88704 | -75.85770 | 40214 ft | 420 kts | 239° |
| 2026-04-10 06:22 | 45.85361 | -75.92655 | 40214 ft | 420 kts | 239° |
| 2026-04-10 06:23 | 45.82020 | -75.99522 | 40213 ft | 420 kts | 239° |
| 2026-04-10 06:23 | 45.78684 | -76.06358 | 40213 ft | 420 kts | 239° |
| 2026-04-10 06:24 | 45.75305 | -76.13197 | 40213 ft | 420 kts | 239° |
| 2026-04-10 06:24 | 45.71926 | -76.20031 | 40220 ft | 420 kts | 239° |
| 2026-04-10 06:25 | 45.68557 | -76.26869 | 40213 ft | 420 kts | 239° |
| 2026-04-10 06:25 | 45.65192 | -76.33698 | 40213 ft | 421 kts | 239° |
| 2026-04-10 06:26 | 45.61812 | -76.40545 | 40213 ft | 421 kts | 239° |
| 2026-04-10 06:26 | 45.58454 | -76.47328 | 40230 ft | 421 kts | 239° |
| 2026-04-10 06:27 | 45.55071 | -76.54145 | 40225 ft | 421 kts | 239° |
| 2026-04-10 06:27 | 45.51686 | -76.60951 | 40231 ft | 421 kts | 239° |
| 2026-04-10 06:28 | 45.48327 | -76.67763 | 40231 ft | 420 kts | 240° |
| 2026-04-10 06:28 | 45.44977 | -76.74672 | 40236 ft | 420 kts | 240° |
| 2026-04-10 06:29 | 45.41680 | -76.81492 | 40230 ft | 421 kts | 240° |
| 2026-04-10 06:29 | 45.38358 | -76.88349 | 40235 ft | 421 kts | 240° |
| 2026-04-10 06:30 | 45.35027 | -76.95206 | 40239 ft | 421 kts | 240° |
| 2026-04-10 06:30 | 45.31691 | -77.02056 | 40240 ft | 421 kts | 240° |
| 2026-04-10 06:31 | 45.28362 | -77.08876 | 40241 ft | 421 kts | 240° |
| 2026-04-10 06:31 | 45.25037 | -77.15670 | 40242 ft | 421 kts | 240° |
| 2026-04-10 06:32 | 45.21691 | -77.22491 | 40239 ft | 421 kts | 239° |
| 2026-04-10 06:32 | 45.18337 | -77.29311 | 40242 ft | 421 kts | 239° |
| 2026-04-10 06:33 | 45.14981 | -77.36118 | 40245 ft | 421 kts | 239° |
| 2026-04-10 06:33 | 45.11617 | -77.42927 | 40245 ft | 421 kts | 239° |
| 2026-04-10 06:34 | 45.08275 | -77.49677 | 40248 ft | 422 kts | 239° |
| 2026-04-10 06:34 | 45.04900 | -77.56476 | 40247 ft | 422 kts | 239° |
| 2026-04-10 06:35 | 45.01509 | -77.63253 | 40251 ft | 422 kts | 239° |
| 2026-04-10 06:35 | 44.98105 | -77.70006 | 40247 ft | 422 kts | 239° |
| 2026-04-10 06:36 | 44.94702 | -77.76782 | 40247 ft | 423 kts | 239° |
| 2026-04-10 06:36 | 44.91302 | -77.83561 | 40246 ft | 423 kts | 239° |
| 2026-04-10 06:37 | 44.87898 | -77.90338 | 40249 ft | 423 kts | 239° |
| 2026-04-10 06:37 | 44.84439 | -77.96993 | 39292 ft | 423 kts | 237° |
| 2026-04-10 06:37 | 44.82655 | -78.00313 | 38141 ft | 423 kts | 238° |
| 2026-04-10 06:38 | 44.80892 | -78.03568 | 36995 ft | 422 kts | 239° |
| 2026-04-10 06:38 | 44.79096 | -78.06884 | 35863 ft | 419 kts | 240° |
| 2026-04-10 06:38 | 44.77335 | -78.10135 | 34763 ft | 416 kts | 242° |
| 2026-04-10 06:38 | 44.75610 | -78.13322 | 33553 ft | 413 kts | 242° |
| 2026-04-10 06:39 | 44.73874 | -78.16544 | 32024 ft | 415 kts | 241° |
| 2026-04-10 06:39 | 44.72124 | -78.19799 | 30411 ft | 420 kts | 240° |
| 2026-04-10 06:39 | 44.70363 | -78.23065 | 29008 ft | 418 kts | 239° |
| 2026-04-10 06:39 | 44.68613 | -78.26292 | 27842 ft | 412 kts | 239° |
| 2026-04-10 06:40 | 44.66887 | -78.29470 | 26711 ft | 406 kts | 238° |
| 2026-04-10 06:40 | 44.65185 | -78.32601 | 25640 ft | 400 kts | 238° |
| 2026-04-10 06:40 | 44.63510 | -78.35683 | 24598 ft | 395 kts | 237° |
| 2026-04-10 06:40 | 44.61855 | -78.38727 | 23566 ft | 390 kts | 237° |
| 2026-04-10 06:41 | 44.60222 | -78.41729 | 22449 ft | 384 kts | 237° |
| 2026-04-10 06:41 | 44.58611 | -78.44688 | 21407 ft | 379 kts | 236° |
| 2026-04-10 06:41 | 44.57039 | -78.47572 | 20404 ft | 374 kts | 236° |
| 2026-04-10 06:41 | 44.55471 | -78.50446 | 19526 ft | 368 kts | 235° |
| 2026-04-10 06:42 | 44.53921 | -78.53284 | 19176 ft | 369 kts | 235° |
| 2026-04-10 06:42 | 44.52370 | -78.56124 | 18824 ft | 367 kts | 234° |
| 2026-04-10 06:42 | 44.50825 | -78.58947 | 18452 ft | 365 kts | 234° |
| 2026-04-10 06:42 | 44.49279 | -78.61767 | 18293 ft | 363 kts | 234° |
| 2026-04-10 06:43 | 44.47742 | -78.64567 | 18262 ft | 363 kts | 234° |
| 2026-04-10 06:43 | 44.46205 | -78.67366 | 18255 ft | 362 kts | 234° |
| 2026-04-10 06:43 | 44.44666 | -78.70165 | 18259 ft | 362 kts | 234° |
| 2026-04-10 06:43 | 44.43127 | -78.72962 | 18256 ft | 362 kts | 234° |
| 2026-04-10 06:44 | 44.41589 | -78.75755 | 18255 ft | 362 kts | 234° |
| 2026-04-10 06:44 | 44.40048 | -78.78549 | 18258 ft | 362 kts | 234° |
| 2026-04-10 06:44 | 44.38512 | -78.81334 | 18267 ft | 362 kts | 234° |
| 2026-04-10 06:44 | 44.36970 | -78.84125 | 18259 ft | 362 kts | 234° |
| 2026-04-10 06:45 | 44.35422 | -78.86904 | 18258 ft | 362 kts | 234° |
| 2026-04-10 06:45 | 44.34395 | -78.88736 | 18264 ft | 362 kts | 234° |
| 2026-04-10 06:45 | 44.32319 | -78.92445 | 18260 ft | 362 kts | 234° |
| 2026-04-10 06:45 | 44.31295 | -78.94277 | 18263 ft | 362 kts | 234° |
| 2026-04-10 06:46 | 44.29747 | -78.97055 | 18260 ft | 362 kts | 234° |
| 2026-04-10 06:46 | 44.28208 | -78.99816 | 18073 ft | 356 kts | 234° |
| 2026-04-10 06:46 | 44.26690 | -79.02542 | 16960 ft | 354 kts | 234° |
| 2026-04-10 06:46 | 44.25035 | -79.05068 | 16007 ft | 351 kts | 226° |
| 2026-04-10 06:47 | 44.23165 | -79.07203 | 15518 ft | 338 kts | 221° |
| 2026-04-10 06:47 | 44.20761 | -79.09654 | 15347 ft | 309 kts | 220° |
| 2026-04-10 06:47 | 44.19607 | -79.10810 | 15261 ft | 296 kts | 221° |
| 2026-04-10 06:47 | 44.17979 | -79.12443 | 15107 ft | 279 kts | 221° |
| 2026-04-10 06:48 | 44.16434 | -79.14006 | 14768 ft | 272 kts | 222° |
| 2026-04-10 06:48 | 44.14906 | -79.15567 | 14414 ft | 272 kts | 222° |
| 2026-04-10 06:48 | 44.13400 | -79.17108 | 14082 ft | 270 kts | 222° |
| 2026-04-10 06:48 | 44.11895 | -79.18646 | 13992 ft | 268 kts | 222° |
| 2026-04-10 06:49 | 44.10389 | -79.20189 | 13979 ft | 269 kts | 222° |
| 2026-04-10 06:49 | 44.08887 | -79.21725 | 13971 ft | 269 kts | 222° |
| 2026-04-10 06:49 | 44.07380 | -79.23263 | 13972 ft | 269 kts | 222° |
| 2026-04-10 06:49 | 44.05870 | -79.24800 | 13974 ft | 269 kts | 222° |
| 2026-04-10 06:50 | 44.04362 | -79.26335 | 13969 ft | 269 kts | 222° |
| 2026-04-10 06:50 | 44.02850 | -79.27874 | 13974 ft | 269 kts | 222° |
| 2026-04-10 06:50 | 44.01351 | -79.29399 | 13736 ft | 266 kts | 222° |
| 2026-04-10 06:50 | 43.99855 | -79.30920 | 13208 ft | 264 kts | 222° |
| 2026-04-10 06:51 | 43.98384 | -79.32411 | 12962 ft | 254 kts | 222° |
| 2026-04-10 06:51 | 43.96993 | -79.33816 | 12833 ft | 241 kts | 222° |
| 2026-04-10 06:51 | 43.95669 | -79.35155 | 12681 ft | 230 kts | 223° |
| 2026-04-10 06:51 | 43.94388 | -79.36455 | 12328 ft | 227 kts | 223° |
| 2026-04-10 06:52 | 43.93133 | -79.37733 | 11951 ft | 225 kts | 223° |
| 2026-04-10 06:52 | 43.91871 | -79.39017 | 11576 ft | 224 kts | 223° |
| 2026-04-10 06:52 | 43.90618 | -79.40290 | 11221 ft | 222 kts | 223° |
| 2026-04-10 06:52 | 43.89374 | -79.41553 | 10854 ft | 221 kts | 223° |
| 2026-04-10 06:53 | 43.88134 | -79.42810 | 10506 ft | 220 kts | 223° |
| 2026-04-10 06:53 | 43.86908 | -79.44058 | 10172 ft | 217 kts | 224° |
| 2026-04-10 06:53 | 43.85887 | -79.45534 | 9750 ft | 210 kts | 239° |
| 2026-04-10 06:53 | 43.85114 | -79.47255 | 9336 ft | 210 kts | 242° |
| 2026-04-10 06:54 | 43.84383 | -79.48996 | 8949 ft | 210 kts | 242° |
| 2026-04-10 06:54 | 43.83653 | -79.50755 | 8561 ft | 210 kts | 242° |
| 2026-04-10 06:54 | 43.82928 | -79.52512 | 8177 ft | 210 kts | 242° |
| 2026-04-10 06:54 | 43.82210 | -79.54258 | 7995 ft | 207 kts | 242° |
| 2026-04-10 06:55 | 43.81492 | -79.56012 | 7969 ft | 210 kts | 242° |
| 2026-04-10 06:55 | 43.80772 | -79.57770 | 7973 ft | 210 kts | 242° |
| 2026-04-10 06:55 | 43.80051 | -79.59529 | 7965 ft | 210 kts | 242° |
| 2026-04-10 06:55 | 43.79334 | -79.61282 | 7965 ft | 206 kts | 242° |
| 2026-04-10 06:56 | 43.78642 | -79.62973 | 7920 ft | 198 kts | 242° |
| 2026-04-10 06:56 | 43.77963 | -79.64634 | 7599 ft | 199 kts | 242° |
| 2026-04-10 06:56 | 43.77284 | -79.66298 | 7281 ft | 199 kts | 242° |
| 2026-04-10 06:56 | 43.76611 | -79.67945 | 6980 ft | 199 kts | 242° |
| 2026-04-10 06:57 | 43.75931 | -79.69613 | 6673 ft | 199 kts | 242° |
| 2026-04-10 06:57 | 43.75238 | -79.71276 | 6344 ft | 199 kts | 238° |
| 2026-04-10 06:57 | 43.74353 | -79.72768 | 6038 ft | 200 kts | 230° |
| 2026-04-10 06:57 | 43.73410 | -79.74175 | 5984 ft | 201 kts | 229° |
| 2026-04-10 06:58 | 43.72454 | -79.75586 | 5984 ft | 202 kts | 229° |
| 2026-04-10 06:58 | 43.71493 | -79.76998 | 5979 ft | 202 kts | 229° |
| 2026-04-10 06:58 | 43.70535 | -79.78397 | 5972 ft | 196 kts | 229° |
| 2026-04-10 06:58 | 43.69612 | -79.79738 | 5968 ft | 189 kts | 229° |
| 2026-04-10 06:59 | 43.68711 | -79.81049 | 5709 ft | 189 kts | 229° |
| 2026-04-10 06:59 | 43.67809 | -79.82360 | 5459 ft | 186 kts | 228° |
| 2026-04-10 06:59 | 43.66957 | -79.83593 | 5288 ft | 170 kts | 228° |
| 2026-04-10 06:59 | 43.66142 | -79.84775 | 4886 ft | 169 kts | 228° |
| 2026-04-10 07:00 | 43.65331 | -79.85950 | 4489 ft | 169 kts | 228° |
| 2026-04-10 07:00 | 43.64525 | -79.87117 | 4106 ft | 167 kts | 228° |
| 2026-04-10 07:00 | 43.63743 | -79.88248 | 4003 ft | 164 kts | 228° |
| 2026-04-10 07:00 | 43.62986 | -79.89341 | 3947 ft | 155 kts | 228° |
| 2026-04-10 07:01 | 43.62253 | -79.90400 | 3997 ft | 154 kts | 228° |
| 2026-04-10 07:01 | 43.61503 | -79.91484 | 3970 ft | 154 kts | 228° |
| 2026-04-10 07:01 | 43.60784 | -79.92522 | 3845 ft | 149 kts | 228° |
| 2026-04-10 07:01 | 43.60050 | -79.93569 | 3388 ft | 151 kts | 224° |
| 2026-04-10 07:02 | 43.59055 | -79.94092 | 2961 ft | 157 kts | 176° |
| 2026-04-10 07:02 | 43.58059 | -79.93533 | 3034 ft | 157 kts | 153° |
| 2026-04-10 07:02 | 43.57078 | -79.92854 | 3002 ft | 157 kts | 159° |
| 2026-04-10 07:02 | 43.56078 | -79.92258 | 2968 ft | 157 kts | 153° |
| 2026-04-10 07:03 | 43.55206 | -79.91349 | 2983 ft | 158 kts | 136° |
| 2026-04-10 07:03 | 43.54555 | -79.90121 | 2972 ft | 160 kts | 118° |
| 2026-04-10 07:03 | 43.54210 | -79.88664 | 2980 ft | 161 kts | 100° |
| 2026-04-10 07:03 | 43.54173 | -79.87078 | 3010 ft | 170 kts | 84° |
| 2026-04-10 07:04 | 43.54551 | -79.85543 | 2947 ft | 170 kts | 53° |
| 2026-04-10 07:04 | 43.55318 | -79.84293 | 3019 ft | 172 kts | 50° |
| 2026-04-10 07:04 | 43.56062 | -79.83066 | 2937 ft | 162 kts | 47° |
| 2026-04-10 07:04 | 43.56806 | -79.81897 | 2989 ft | 163 kts | 48° |
| 2026-04-10 07:05 | 43.57557 | -79.80735 | 2983 ft | 162 kts | 46° |
| 2026-04-10 07:05 | 43.58341 | -79.79607 | 2972 ft | 162 kts | 45° |
| 2026-04-10 07:05 | 43.59110 | -79.78504 | 2974 ft | 162 kts | 45° |
| 2026-04-10 07:05 | 43.59893 | -79.77374 | 2855 ft | 163 kts | 45° |
| 2026-04-10 07:06 | 43.60663 | -79.76258 | 2610 ft | 159 kts | 45° |
| 2026-04-10 07:06 | 43.61397 | -79.75192 | 2410 ft | 150 kts | 45° |
| 2026-04-10 07:06 | 43.62108 | -79.74174 | 2207 ft | 145 kts | 45° |
| 2026-04-10 07:06 | 43.62795 | -79.73181 | 1998 ft | 142 kts | 46° |
| 2026-04-10 07:07 | 43.63461 | -79.72187 | 1803 ft | 141 kts | 46° |
| 2026-04-10 07:07 | 43.64118 | -79.71194 | 1598 ft | 140 kts | 46° |
| 2026-04-10 07:07 | 43.64788 | -79.70219 | 1393 ft | 139 kts | 44° |
| 2026-04-10 07:07 | 43.65467 | -79.69260 | 1208 ft | 139 kts | 44° |
| 2026-04-10 07:08 | 43.66131 | -79.68293 | 1016 ft | 139 kts | 45° |
| 2026-04-10 07:08 | 43.66793 | -79.67323 | 831 ft | 138 kts | 45° |
| 2026-04-10 07:08 | 43.67450 | -79.66359 | 642 ft | 137 kts | 45° |
| 2026-04-10 07:09 | 43.68410 | -79.64964 | 575 ft | 46 kts | 47° |
| 2026-04-10 07:09 | 43.68498 | -79.64837 | 575 ft | 2 kts | 46° |
| 2026-04-10 07:09 | 43.68562 | -79.64743 | 572 ft | 16 kts | 47° |
| 2026-04-10 07:09 | 43.68639 | -79.64630 | 574 ft | 16 kts | 47° |
| 2026-04-10 07:10 | 43.68698 | -79.64500 | 571 ft | 15 kts | 62° |
| 2026-04-10 07:10 | 43.68739 | -79.64378 | 576 ft | 12 kts | 69° |
| 2026-04-10 07:10 | 43.68752 | -79.64298 | 576 ft | 7 kts | 81° |
| 2026-04-10 07:10 | 43.68759 | -79.64233 | 572 ft | 6 kts | 80° |
| 2026-04-10 07:11 | 43.68769 | -79.64156 | 574 ft | 10 kts | 80° |
| 2026-04-10 07:11 | 43.68784 | -79.64057 | 579 ft | 9 kts | 76° |
| 2026-04-10 07:11 | 43.68809 | -79.63984 | 583 ft | 8 kts | 56° |
| 2026-04-10 07:11 | 43.68846 | -79.63926 | 582 ft | 9 kts | 48° |
| 2026-04-10 07:12 | 43.68891 | -79.63859 | 583 ft | 10 kts | 46° |
| 2026-04-10 07:12 | 43.68941 | -79.63787 | 579 ft | 10 kts | 46° |
| 2026-04-10 07:12 | 43.68992 | -79.63714 | 582 ft | 11 kts | 46° |
| 2026-04-10 07:12 | 43.69024 | -79.63620 | 579 ft | 9 kts | 94° |
| 2026-04-10 07:13 | 43.68987 | -79.63560 | 575 ft | 9 kts | 136° |
| 2026-04-10 07:13 | 43.68939 | -79.63498 | 577 ft | 10 kts | 137° |
| 2026-04-10 07:13 | 43.68889 | -79.63433 | 576 ft | 10 kts | 136° |
| 2026-04-10 07:13 | 43.68835 | -79.63357 | 574 ft | 12 kts | 127° |
| 2026-04-10 07:14 | 43.68833 | -79.63264 | 572 ft | 9 kts | 68° |
| 2026-04-10 07:14 | 43.68833 | -79.63216 | 572 ft | 6 kts | 106° |
| 2026-04-10 07:14 | 43.68798 | -79.63167 | 571 ft | 7 kts | 138° |
| 2026-04-10 07:14 | 43.68762 | -79.63120 | 570 ft | 7 kts | 136° |
| 2026-04-10 07:15 | 43.68723 | -79.63070 | 570 ft | 8 kts | 136° |
| 2026-04-10 07:15 | 43.68679 | -79.63012 | 573 ft | 9 kts | 136° |
| 2026-04-10 07:15 | 43.68634 | -79.62954 | 570 ft | 8 kts | 136° |
| 2026-04-10 07:15 | 43.68596 | -79.62904 | 571 ft | 6 kts | 136° |
| 2026-04-10 07:16 | 43.68558 | -79.62855 | 576 ft | 9 kts | 136° |
| 2026-04-10 07:16 | 43.68514 | -79.62798 | 579 ft | 9 kts | 136° |
| 2026-04-10 07:16 | 43.68477 | -79.62735 | 573 ft | 8 kts | 114° |
| 2026-04-10 07:16 | 43.68482 | -79.62681 | 573 ft | 5 kts | 65° |
| 2026-04-10 07:17 | 43.68506 | -79.62642 | 579 ft | 9 kts | 49° |
| 2026-04-10 07:17 | 43.68543 | -79.62575 | 580 ft | 8 kts | 49° |
| 2026-04-10 07:17 | 43.68584 | -79.62515 | 577 ft | 9 kts | 51° |
| 2026-04-10 07:17 | 43.68616 | -79.62456 | 581 ft | 2 kts | 53° |
| 2026-04-10 07:18 | 43.68624 | -79.62443 | 578 ft | 2 kts | 53° |
| 2026-04-10 07:18 | 43.68640 | -79.62411 | 579 ft | 1 kts | 53° |
| 2026-04-10 07:18 | 43.68649 | -79.62402 | 582 ft | 2 kts | 34° |
| 2026-04-10 07:18 | 43.68663 | -79.62403 | 575 ft | 1 kts | 349° |
| 2026-04-10 07:19 | 43.68672 | -79.62415 | 581 ft | 4 kts | 314° |
| 2026-04-10 07:19 | 43.68672 | -79.62453 | 578 ft | 4 kts | 251° |
| 2026-04-10 07:19 | 43.68656 | -79.62490 | 576 ft | 6 kts | 238° |
| 2026-04-10 07:19 | 43.68642 | -79.62511 | 579 ft | 1 kts | 209° |
| 2026-04-10 07:20 | 43.68636 | -79.62508 | 578 ft | 1 kts | 177° |
| 2026-04-10 07:20 | 43.68629 | -79.62500 | 576 ft | 2 kts | 145° |
| 2026-04-10 07:20 | 43.68589 | -79.62458 | 579 ft | 10 kts | 146° |
| 2026-04-10 07:20 | 43.68563 | -79.62434 | 578 ft | 1 kts | 146° |
| 2026-04-10 07:21 | 43.68555 | -79.62426 | 578 ft | 0 kts | 146° |